AF9420 / F-GRHT 7700 Squawk Report (24th of September, 2021)

Aircraft A319 Reg No. F-GRHT Age 20 years old
Model A319 Jet engines 2 First flight 19-02-01
Registered 08-03-01 Rollout 02-01 Delivered 08-03-01
Construction No. 1449 Line No. N/A Series 111
ADSHEX 3944F3 Airline name Air France Owner Takeoff 15 Ltd., Dublin
Airfield based Paris-Charles de Gaulle~Val-d'Oise~F First tracked N/A
Time Lat Lon Altitude Heading Speed Vertical Rate
2021-09-24 09:24:31 GMT 43.468643 -1.499314 275 270 137 -512
2021-09-24 09:24:29 GMT 43.468689 -1.497079 300 270 137 -512
2021-09-24 09:24:27 GMT 43.468689 -1.495674 325 270 137 -512
2021-09-24 09:24:26 GMT 43.468689 -1.493566 350 270 138 -640
2021-09-24 09:24:24 GMT 43.468735 -1.492735 350 270 138 -640
2021-09-24 09:24:21 GMT 43.468735 -1.490628 375 270 139 -832
2021-09-24 09:24:20 GMT 43.468735 -1.489733 400 270 139 -832
2021-09-24 09:24:18 GMT 43.468803 -1.487013 425 269 140 -704
2021-09-24 09:24:16 GMT 43.468803 -1.486097 450 270 140 -704
2021-09-24 09:24:10 GMT 43.468849 -1.480212 525 270 143 -704
2021-09-24 09:24:09 GMT 43.468872 -1.479194 525 270 143 -704
2021-09-24 09:24:08 GMT 43.468899 -1.478250 550 270 143 -704
2021-09-24 09:24:07 GMT 43.468899 -1.476353 575 270 143 -768
2021-09-24 09:24:05 GMT 43.468918 -1.475362 600 270 143 -768
2021-09-24 09:24:04 GMT 43.468918 -1.474851 600 270 143 -768
2021-09-24 09:24:03 GMT 43.468945 -1.473476 625 270 143 -768
2021-09-24 09:24:00 GMT 43.468945 -1.470925 650 270 143 -704
2021-09-24 09:23:59 GMT 43.468945 -1.470010 675 270 143 -704
2021-09-24 09:23:58 GMT 43.468990 -1.467656 700 270 143 -768
2021-09-24 09:23:55 GMT 43.468990 -1.466740 725 270 143 -832
2021-09-24 09:23:54 GMT 43.469009 -1.465781 725 270 143 -832
2021-09-24 09:23:53 GMT 43.468990 -1.464386 750 270 143 -704
2021-09-24 09:23:51 GMT 43.469009 -1.462523 775 270 143 -704
2021-09-24 09:23:49 GMT 43.469009 -1.457796 800 270 143 -768
2021-09-24 09:23:45 GMT 43.469009 -1.457796 850 270 143 -768
2021-09-24 09:23:36 GMT 43.469101 -1.449940 950 269 142 -704
2021-09-24 09:23:33 GMT 43.469147 -1.445149 1,025 270 142 -704
2021-09-24 09:23:31 GMT 43.469147 -1.445149 1,025 270 142 -704
2021-09-24 09:23:26 GMT 43.469193 -1.440934 1,075 270 142 -704
2021-09-24 09:23:23 GMT 43.469223 -1.437770 1,100 269 143 -768
2021-09-24 09:23:17 GMT 43.469330 -1.432055 1,200 269 143 -768
2021-09-24 09:23:12 GMT 43.469360 -1.426522 1,275 270 143 -704
2021-09-24 09:23:10 GMT 43.469376 -1.425540 1,275 270 144 -704
2021-09-24 09:23:08 GMT 43.469410 -1.423645 1,300 270 144 -704
2021-09-24 09:23:06 GMT 43.469421 -1.422282 1,325 270 144 -704
2021-09-24 09:23:05 GMT 43.469410 -1.421487 1,325 270 144 -704
2021-09-24 09:23:01 GMT 43.469467 -1.417364 1,400 270 144 -704
2021-09-24 09:22:58 GMT 43.469456 -1.414686 1,425 270 144 -704
2021-09-24 09:22:56 GMT 43.469501 -1.412463 1,450 270 144 -704
2021-09-24 09:22:51 GMT 43.469547 -1.409193 1,500 269 144 -768
2021-09-24 09:22:50 GMT 43.469559 -1.407847 1,525 269 143 -704
2021-09-24 09:22:49 GMT 43.469559 -1.406953 1,525 269 143 -704
2021-09-24 09:22:47 GMT 43.469650 -1.398713 1,625 269 143 -704
2021-09-24 09:22:40 GMT 43.469650 -1.398713 1,650 270 145 -704
2021-09-24 09:22:39 GMT 43.469696 -1.397755 1,650 270 145 -704
2021-09-24 09:22:37 GMT 43.469696 -1.395966 1,675 270 146 -704
2021-09-24 09:22:36 GMT 43.469688 -1.395133 1,675 270 146 -768
2021-09-24 09:22:35 GMT 43.469780 -1.389509 1,750 270 149 -832
2021-09-24 09:22:30 GMT 43.469780 -1.389509 1,750 270 149 -832
2021-09-24 09:22:29 GMT 43.469780 -1.388528 1,775 270 150 -832
2021-09-24 09:22:28 GMT 43.469788 -1.387535 1,800 270 150 -832
2021-09-24 09:22:27 GMT 43.469788 -1.386577 1,800 270 150 -832
2021-09-24 09:22:22 GMT 43.469833 -1.382170 1,875 269 152 -896
2021-09-24 09:22:21 GMT 43.469830 -1.380746 1,900 269 152 -896
2021-09-24 09:22:19 GMT 43.469879 -1.378337 1,925 270 157 -576
2021-09-24 09:22:12 GMT 43.469925 -1.371694 2,025 270 158 -640
2021-09-24 09:22:11 GMT 43.469921 -1.370544 2,025 270 159 -832
2021-09-24 09:22:10 GMT 43.469925 -1.369650 2,050 270 159 -832
2021-09-24 09:22:09 GMT 43.469967 -1.361651 2,075 270 160 -832
2021-09-24 09:22:02 GMT 43.469967 -1.361651 2,150 270 162 -960
2021-09-24 09:21:52 GMT 43.470013 -1.351580 2,300 270 162 -832
2021-09-24 09:21:51 GMT 43.470013 -1.348899 2,325 269 162 -768
2021-09-24 09:21:48 GMT 43.470013 -1.347852 2,325 269 162 -768
2021-09-24 09:21:44 GMT 43.470108 -1.342184 2,400 269 162 -768
2021-09-24 09:21:41 GMT 43.470154 -1.339949 2,425 270 163 -832
2021-09-24 09:21:34 GMT 43.470154 -1.333114 2,525 271 163 -768
2021-09-24 09:21:33 GMT 43.470154 -1.329793 2,575 271 163 -768
2021-09-24 09:21:31 GMT 43.470154 -1.329793 2,575 271 164 -640
2021-09-24 09:21:00 GMT 43.468803 -1.296321 2,875 280 172 -128
2021-09-24 09:20:59 GMT 43.468712 -1.295275 2,875 280 172 -128
2021-09-24 09:20:58 GMT 43.468185 -1.291021 2,875 281 174 0
2021-09-24 09:20:55 GMT 43.468185 -1.291021 2,875 284 179 0
2021-09-24 09:20:51 GMT 43.467548 -1.287166 2,875 286 182 0
2021-09-24 09:20:47 GMT 43.466629 -1.283037 2,875 290 186 0
2021-09-24 09:20:46 GMT 43.466400 -1.282143 2,875 290 187 0
2021-09-24 09:20:43 GMT 43.465546 -1.278861 2,875 294 193 0
2021-09-24 09:20:40 GMT 43.464428 -1.275264 2,875 294 195 0
2021-09-24 09:20:39 GMT 43.464111 -1.274286 2,875 294 197 0
2021-09-24 09:20:37 GMT 43.463543 -1.272583 2,875 294 197 0
2021-09-24 09:20:36 GMT 43.462799 -1.270294 2,875 294 202 192
2021-09-24 09:20:34 GMT 43.461777 -1.267132 2,875 294 204 0
2021-09-24 09:20:32 GMT 43.461411 -1.265919 2,875 294 205 -128
2021-09-24 09:20:31 GMT 43.460842 -1.264082 2,875 294 206 0
2021-09-24 09:20:29 GMT 43.460449 -1.262789 2,875 294 206 0
2021-09-24 09:20:28 GMT 43.459808 -1.260873 2,875 294 206 0
2021-09-24 09:20:26 GMT 43.458984 -1.258254 2,900 293 207 0
2021-09-24 09:20:24 GMT 43.458282 -1.255907 2,900 293 207 0
2021-09-24 09:20:23 GMT 43.457958 -1.254730 2,900 292 207 0
2021-09-24 09:20:22 GMT 43.457584 -1.253488 2,900 292 207 0
2021-09-24 09:20:11 GMT 43.453491 -1.239347 2,900 294 208 0
2021-09-24 09:20:09 GMT 43.452988 -1.237623 2,900 293 208 0
2021-09-24 09:20:08 GMT 43.452438 -1.235706 2,900 292 208 64
2021-09-24 09:20:05 GMT 43.451347 -1.231842 2,900 285 207 0
2021-09-24 09:20:03 GMT 43.451069 -1.230600 2,900 282 209 0
2021-09-24 09:19:35 GMT 43.458847 -1.196999 2,950 216 210 -512
2021-09-24 09:19:33 GMT 43.460449 -1.195466 2,975 211 211 -640
2021-09-24 09:19:32 GMT 43.461960 -1.194109 2,975 206 212 -832
2021-09-24 09:19:30 GMT 43.462784 -1.193550 3,000 206 212 -832
2021-09-24 09:19:20 GMT 43.472672 -1.189909 3,150 180 218 -896
2021-09-24 09:19:14 GMT 43.479046 -1.190578 3,250 166 221 -960
2021-09-24 09:19:09 GMT 43.483700 -1.192474 3,325 152 224 -1088
2021-09-24 09:19:08 GMT 43.484676 -1.193063 3,350 152 224 -1088
2021-09-24 09:19:07 GMT 43.487984 -1.195548 3,425 148 225 -1088
2021-09-24 09:19:04 GMT 43.487984 -1.195548 3,425 141 227 -960
2021-09-24 09:19:03 GMT 43.489334 -1.196790 3,450 141 227 -960
2021-09-24 09:19:01 GMT 43.491940 -1.199668 3,500 133 229 -960
2021-09-24 09:18:58 GMT 43.492630 -1.200640 3,500 133 229 -960
2021-09-24 09:18:56 GMT 43.493988 -1.202611 3,525 130 230 -1024
2021-09-24 09:18:55 GMT 43.494781 -1.203897 3,550 126 231 -1024
2021-09-24 09:18:54 GMT 43.495384 -1.204965 3,575 122 233 -1024
2021-09-24 09:18:53 GMT 43.495880 -1.206005 3,600 122 233 -1024
2021-09-24 09:18:51 GMT 43.497162 -1.208752 3,625 119 234 -1088
2021-09-24 09:18:49 GMT 43.498318 -1.211766 3,675 113 236 -1024
2021-09-24 09:18:45 GMT 43.499817 -1.217311 3,750 106 238 -1088
2021-09-24 09:18:42 GMT 43.500549 -1.221782 3,800 98 240 -960
2021-09-24 09:18:40 GMT 43.500916 -1.225039 3,825 93 244 -768
2021-09-24 09:18:38 GMT 43.501110 -1.228311 3,850 90 248 -704
2021-09-24 09:18:36 GMT 43.501160 -1.235504 3,900 89 251 -704
2021-09-24 09:18:33 GMT 43.501160 -1.235504 3,900 89 251 -704
2021-09-24 09:18:32 GMT 43.501053 -1.245351 3,975 88 255 -832
2021-09-24 09:18:27 GMT 43.501053 -1.245351 4,000 88 259 -1024
2021-09-24 09:18:25 GMT 43.500961 -1.248673 4,025 88 262 -1088
2021-09-24 09:18:23 GMT 43.500916 -1.252378 4,075 88 263 -1024
2021-09-24 09:18:22 GMT 43.500877 -1.253880 4,075 88 265 -960
2021-09-24 09:18:19 GMT 43.500732 -1.258957 4,125 87 267 -832
2021-09-24 09:18:18 GMT 43.500687 -1.260362 4,150 87 267 -832
2021-09-24 09:18:17 GMT 43.500645 -1.262251 4,175 87 267 -832
2021-09-24 09:18:14 GMT 43.500412 -1.267516 4,200 84 271 -1216
2021-09-24 09:18:11 GMT 43.500134 -1.272845 4,275 83 271 -1280
2021-09-24 09:18:09 GMT 43.499863 -1.275755 4,300 82 273 -1216
2021-09-24 09:18:08 GMT 43.499634 -1.278119 4,325 79 276 -1216
2021-09-24 09:18:07 GMT 43.499405 -1.279907 4,350 78 277 -1216
2021-09-24 09:18:05 GMT 43.499016 -1.282785 4,375 76 278 -1216
2021-09-24 09:18:03 GMT 43.498352 -1.286422 4,425 73 282 -1280
2021-09-24 09:18:02 GMT 43.497898 -1.288278 4,450 69 284 -1344
2021-09-24 09:18:00 GMT 43.495991 -1.295079 4,550 64 289 -1408
2021-09-24 09:17:58 GMT 43.495991 -1.295079 4,550 64 289 -1408
2021-09-24 09:17:57 GMT 43.495377 -1.296898 4,575 61 291 -1344
2021-09-24 09:17:55 GMT 43.494141 -1.300155 4,600 57 294 -1216
2021-09-24 09:17:52 GMT 43.491802 -1.305411 4,675 56 295 -1088
2021-09-24 09:17:51 GMT 43.491119 -1.306862 4,700 56 297 -1088
2021-09-24 09:17:50 GMT 43.490265 -1.308550 4,725 56 299 -960
2021-09-24 09:17:48 GMT 43.488728 -1.311754 4,750 56 300 -960
2021-09-24 09:17:46 GMT 43.487274 -1.314719 4,775 56 305 -896
2021-09-24 09:17:44 GMT 43.484940 -1.319573 4,825 56 309 -832
2021-09-24 09:17:42 GMT 43.484028 -1.321368 4,825 56 310 -704
2021-09-24 09:17:40 GMT 43.482376 -1.324811 4,850 56 313 -640
2021-09-24 09:17:39 GMT 43.481651 -1.326338 4,875 56 315 -640
2021-09-24 09:17:38 GMT 43.480911 -1.327813 4,875 56 317 -704
2021-09-24 09:17:36 GMT 43.480133 -1.329473 4,900 56 319 -704
2021-09-24 09:17:34 GMT 43.478348 -1.333008 4,925 56 321 -640
2021-09-24 09:17:32 GMT 43.476719 -1.336408 4,950 56 327 -768
2021-09-24 09:17:29 GMT 43.474205 -1.341575 4,975 56 334 -704
2021-09-24 09:17:26 GMT 43.471893 -1.346336 5,000 56 337 -768
2021-09-24 09:17:24 GMT 43.469688 -1.350795 5,025 56 343 -960
2021-09-24 09:17:22 GMT 43.468369 -1.353554 5,050 56 345 -960
2021-09-24 09:17:21 GMT 43.466949 -1.356428 5,075 56 346 -1024
2021-09-24 09:17:19 GMT 43.465034 -1.360343 5,125 56 348 -1088
2021-09-24 09:17:17 GMT 43.462334 -1.365901 5,175 56 353 -1600
2021-09-24 09:17:15 GMT 43.461365 -1.367862 5,200 56 353 -1728
2021-09-24 09:17:14 GMT 43.460564 -1.369564 5,225 56 353 -1728
2021-09-24 09:17:11 GMT 43.458115 -1.374632 5,325 56 355 -2496
2021-09-24 09:17:10 GMT 43.457073 -1.376626 5,350 56 355 -2496
2021-09-24 09:17:09 GMT 43.456142 -1.378588 5,400 56 356 -2560
2021-09-24 09:17:08 GMT 43.455257 -1.380419 5,450 56 355 -2624
2021-09-24 09:17:07 GMT 43.454372 -1.382250 5,500 56 355 -2624
2021-09-24 09:17:05 GMT 43.452072 -1.387024 5,600 56 356 -2624
2021-09-24 09:17:03 GMT 43.450275 -1.390621 5,675 56 356 -2560
2021-09-24 09:17:01 GMT 43.448833 -1.393629 5,750 56 357 -2496
2021-09-24 09:17:00 GMT 43.447392 -1.396702 5,775 56 357 -2496
2021-09-24 09:16:58 GMT 43.445759 -1.400037 5,875 56 358 -2560
2021-09-24 09:16:56 GMT 43.443100 -1.405547 6,000 56 359 -2688
2021-09-24 09:16:54 GMT 43.442184 -1.407464 6,050 56 359 -2688
2021-09-24 09:16:52 GMT 43.440170 -1.411615 6,150 56 359 -2624
2021-09-24 09:16:50 GMT 43.438034 -1.416059 6,250 56 360 -2624
2021-09-24 09:16:47 GMT 43.435287 -1.421814 6,375 56 360 -2624
2021-09-24 09:16:46 GMT 43.432114 -1.428478 6,525 57 360 -2688
2021-09-24 09:16:43 GMT 43.432114 -1.428478 6,525 57 361 -2880
2021-09-24 09:16:42 GMT 43.430649 -1.431544 6,600 57 361 -2880
2021-09-24 09:16:38 GMT 43.427280 -1.438751 6,775 57 362 -2944
2021-09-24 09:16:37 GMT 43.426395 -1.440713 6,825 57 362 -2944
2021-09-24 09:16:35 GMT 43.424149 -1.445533 6,950 57 362 -2880
2021-09-24 09:16:32 GMT 43.423183 -1.447580 7,000 57 362 -2816
2021-09-24 09:16:31 GMT 43.421585 -1.450962 7,075 57 362 -2752
2021-09-24 09:16:29 GMT 43.419983 -1.454411 7,150 57 362 -2816
2021-09-24 09:16:26 GMT 43.417175 -1.460397 7,300 57 362 -2880
2021-09-24 09:16:25 GMT 43.415920 -1.463078 7,375 57 362 -2944
2021-09-24 09:16:24 GMT 43.415363 -1.464321 7,375 57 362 -2944
2021-09-24 09:16:22 GMT 43.413406 -1.468506 7,500 57 362 -2944
2021-09-24 09:16:21 GMT 43.412338 -1.470699 7,550 57 362 -2880
2021-09-24 09:16:20 GMT 43.411545 -1.472364 7,575 57 362 -2880
2021-09-24 09:16:19 GMT 43.410736 -1.474148 7,625 57 362 -2880
2021-09-24 09:16:18 GMT 43.408951 -1.477981 7,725 57 363 -2816
2021-09-24 09:16:16 GMT 43.407913 -1.480146 7,800 57 363 -2816
2021-09-24 09:16:15 GMT 43.406982 -1.482173 7,825 57 363 -2752
2021-09-24 09:16:13 GMT 43.405212 -1.485966 7,900 57 363 -2816
2021-09-24 09:16:11 GMT 43.403458 -1.489733 8,000 57 364 -2880
2021-09-24 09:16:09 GMT 43.401672 -1.493566 8,100 57 363 -2944
2021-09-24 09:16:08 GMT 43.400650 -1.495775 8,150 57 363 -2944
2021-09-24 09:16:06 GMT 43.398884 -1.499568 8,225 57 363 -2944
2021-09-24 09:16:04 GMT 43.396774 -1.504105 8,350 57 364 -2752
2021-09-24 09:16:02 GMT 43.395126 -1.508065 8,450 57 365 -2560
2021-09-24 09:16:00 GMT 43.393295 -1.511666 8,525 57 365 -2560
2021-09-24 09:15:57 GMT 43.390411 -1.517879 8,650 57 366 -2304
2021-09-24 09:15:56 GMT 43.389359 -1.520073 8,700 57 366 -2240
2021-09-24 09:15:55 GMT 43.387711 -1.523650 8,750 57 366 -2176
2021-09-24 09:15:52 GMT 43.385880 -1.527611 8,875 57 368 -2048
2021-09-24 09:15:51 GMT 43.384964 -1.529527 8,875 57 369 -2048
2021-09-24 09:15:49 GMT 43.383087 -1.533487 8,975 56 370 -1984
2021-09-24 09:15:48 GMT 43.381805 -1.536170 8,975 56 371 -1792
2021-09-24 09:15:47 GMT 43.381256 -1.537383 9,000 56 371 -1792
2021-09-24 09:15:45 GMT 43.378922 -1.542110 9,075 55 373 -1664
2021-09-24 09:15:44 GMT 43.377960 -1.544026 9,100 54 374 -1472
2021-09-24 09:15:41 GMT 43.375443 -1.549136 9,150 54 374 -1472
2021-09-24 09:15:40 GMT 43.374908 -1.550119 9,175 54 377 -1280
2021-09-24 09:15:39 GMT 43.373383 -1.553032 9,225 53 378 -1216
2021-09-24 09:15:36 GMT 43.369812 -1.559548 9,275 51 382 -1152
2021-09-24 09:15:33 GMT 43.366669 -1.565029 9,325 50 386 -1216
2021-09-24 09:15:30 GMT 43.363224 -1.570718 9,375 49 389 -1216
2021-09-24 09:15:28 GMT 43.360664 -1.574838 9,425 47 394 -1472
2021-09-24 09:15:26 GMT 43.358196 -1.578631 9,475 47 394 -1472
2021-09-24 09:15:25 GMT 43.356983 -1.580462 9,500 47 394 -1472
2021-09-24 09:15:24 GMT 43.355728 -1.582358 9,525 47 396 -1664
2021-09-24 09:15:21 GMT 43.352646 -1.587013 9,600 47 397 -2048
2021-09-24 09:15:18 GMT 43.349213 -1.592123 9,675 47 398 -1920
2021-09-24 09:15:17 GMT 43.346191 -1.596595 9,750 47 400 -1664
2021-09-24 09:15:13 GMT 43.343170 -1.601130 9,800 47 401 -1472
2021-09-24 09:15:11 GMT 43.340607 -1.604898 9,875 47 403 -1024
2021-09-24 09:15:10 GMT 43.339371 -1.606750 9,900 47 403 -1024
2021-09-24 09:15:09 GMT 43.337994 -1.608778 9,925 47 406 -576
2021-09-24 09:15:08 GMT 43.335945 -1.611851 9,950 47 406 -448
2021-09-24 09:15:06 GMT 43.333942 -1.614859 9,950 47 406 -448
2021-09-24 09:15:04 GMT 43.330872 -1.619437 9,975 47 409 -64
2021-09-24 09:15:01 GMT 43.326965 -1.625274 10,000 47 411 -448
2021-09-24 09:14:58 GMT 43.323143 -1.630881 10,000 47 413 -640
2021-09-24 09:14:57 GMT 43.321838 -1.632778 10,000 47 413 -768
2021-09-24 09:14:56 GMT 43.320629 -1.634674 10,025 47 416 -1088
2021-09-24 09:14:54 GMT 43.317974 -1.638532 10,050 47 418 -1344
2021-09-24 09:14:51 GMT 43.314018 -1.644353 10,100 47 419 -1344
2021-09-24 09:14:50 GMT 43.312866 -1.646161 10,125 47 419 -1344
2021-09-24 09:14:47 GMT 43.308758 -1.652200 10,200 47 420 -1664
2021-09-24 09:14:45 GMT 43.305725 -1.656700 10,275 47 420 -1920
2021-09-24 09:14:44 GMT 43.303169 -1.660505 10,325 47 420 -1984
2021-09-24 09:14:41 GMT 43.300735 -1.664173 10,400 47 418 -2176
2021-09-24 09:14:39 GMT 43.298035 -1.668133 10,450 47 418 -2240
2021-09-24 09:14:36 GMT 43.295303 -1.672145 10,525 47 418 -2304
2021-09-24 09:14:34 GMT 43.292587 -1.676245 10,625 47 418 -2560
2021-09-24 09:14:33 GMT 43.291115 -1.678423 10,650 47 418 -2688
2021-09-24 09:14:31 GMT 43.289021 -1.681497 10,725 47 417 -2880
2021-09-24 09:14:29 GMT 43.285294 -1.687055 10,850 47 417 -3264
2021-09-24 09:14:28 GMT 43.283890 -1.689148 10,900 47 417 -3456
2021-09-24 09:14:26 GMT 43.281990 -1.691960 11,050 47 417 -3584
2021-09-24 09:14:25 GMT 43.280273 -1.694577 11,050 47 416 -3648
2021-09-24 09:14:24 GMT 43.279102 -1.696276 11,175 47 416 -3840
2021-09-24 09:14:23 GMT 43.277802 -1.698238 11,175 47 416 -3840
2021-09-24 09:14:19 GMT 43.272076 -1.706805 11,450 47 415 -3776
2021-09-24 09:14:18 GMT 43.270817 -1.708766 11,525 47 416 -3648
2021-09-24 09:14:08 GMT 43.257923 -1.728385 12,175 48 420 -2816
2021-09-24 09:13:52 GMT 43.237488 -1.759840 12,800 48 422 -3328
2021-09-24 09:13:46 GMT 43.230789 -1.770204 13,025 48 426 -3136
2021-09-24 09:13:37 GMT 43.217697 -1.790452 13,575 48 427 -3392
2021-09-24 09:13:30 GMT 43.209274 -1.803419 13,900 48 429 -3136
2021-09-24 09:13:27 GMT 43.204155 -1.811305 14,100 47 432 -2304
2021-09-24 09:13:25 GMT 43.201454 -1.815425 14,200 47 431 -2432
2021-09-24 09:13:15 GMT 43.188126 -1.835419 14,525 47 432 -2240
2021-09-24 09:13:06 GMT 43.176636 -1.852921 14,850 47 434 -1088
2021-09-24 09:13:04 GMT 43.174034 -1.856689 14,875 48 435 -896
2021-09-24 09:12:55 GMT 43.161209 -1.876171 14,975 47 435 -128
2021-09-24 09:12:45 GMT 43.147156 -1.897186 15,000 47 430 64
2021-09-24 09:12:36 GMT 43.133675 -1.917572 15,000 48 428 -64
2021-09-24 09:12:34 GMT 43.133675 -1.917572 15,000 47 428 -64
2021-09-24 09:12:26 GMT 43.122894 -1.933849 15,000 48 429 -64
2021-09-24 09:12:24 GMT 43.109070 -1.954736 15,000 48 429 0
2021-09-24 09:12:16 GMT 43.109070 -1.954736 15,000 47 429 -64
2021-09-24 09:12:14 GMT 43.106369 -1.958824 15,000 47 429 0
2021-09-24 09:12:06 GMT 43.095547 -1.974989 15,000 47 431 256
2021-09-24 09:12:02 GMT 43.090099 -1.982901 14,975 45 432 64
2021-09-24 09:11:55 GMT 43.080883 -1.995065 14,975 41 433 0
2021-09-24 09:11:53 GMT 43.077988 -1.998490 14,975 39 434 0
2021-09-24 09:11:43 GMT 43.061417 -2.014841 14,975 30 432 -128
2021-09-24 09:11:35 GMT 43.047409 -2.025508 15,000 28 433 0
2021-09-24 09:11:30 GMT 43.038101 -2.032275 15,000 28 433 0
2021-09-24 09:11:23 GMT 43.025021 -2.041888 15,000 28 432 0
2021-09-24 09:11:14 GMT 43.010544 -2.052351 15,000 28 432 0
2021-09-24 09:11:10 GMT 43.004864 -2.056405 15,000 27 430 256
2021-09-24 09:11:03 GMT 42.990761 -2.066738 14,950 28 433 0
2021-09-24 09:10:54 GMT 42.974670 -2.078588 15,000 28 435 0
2021-09-24 09:10:46 GMT 42.961105 -2.088579 14,975 28 434 -64
2021-09-24 09:10:43 GMT 42.954727 -2.093288 14,975 28 434 0
2021-09-24 09:10:33 GMT 42.938232 -2.105287 15,000 28 435 0
2021-09-24 09:10:31 GMT 42.934803 -2.107740 15,000 28 435 0
2021-09-24 09:10:22 GMT 42.917542 -2.120361 15,000 28 439 64
2021-09-24 09:10:20 GMT 42.915623 -2.121735 15,025 28 439 -64
2021-09-24 09:10:12 GMT 42.900074 -2.133048 15,025 28 446 -704
2021-09-24 09:10:09 GMT 42.895000 -2.136775 15,050 28 449 -1024
2021-09-24 09:10:01 GMT 42.879364 -2.148083 15,225 27 452 -1536
2021-09-24 09:09:48 GMT 42.857071 -2.164243 15,750 28 458 -2624
2021-09-24 09:09:45 GMT 42.850918 -2.168753 15,750 28 458 -2624
2021-09-24 09:09:39 GMT 42.838440 -2.177912 16,125 28 455 -3456
2021-09-24 09:09:31 GMT 42.824100 -2.188437 16,575 28 453 -4096
2021-09-24 09:09:29 GMT 42.820473 -2.191053 16,700 28 452 -4416
2021-09-24 09:09:19 GMT 42.803284 -2.203445 17,275 27 454 -2752
2021-09-24 09:09:11 GMT 42.786346 -2.215789 17,600 28 460 -2112
2021-09-24 09:09:08 GMT 42.782318 -2.218676 17,675 28 463 -2560
2021-09-24 09:08:59 GMT 42.764145 -2.231972 18,125 28 468 -2944
2021-09-24 09:08:48 GMT 42.743820 -2.246767 18,575 28 475 -2752
2021-09-24 09:08:39 GMT 42.723587 -2.261373 19,175 28 479 -3456
2021-09-24 09:08:30 GMT 42.707840 -2.272797 19,625 28 481 -3968
2021-09-24 09:08:28 GMT 42.703629 -2.275855 19,750 28 481 -3968
2021-09-24 09:08:20 GMT 42.688354 -2.286881 20,250 28 482 -3968
2021-09-24 09:08:18 GMT 42.684540 -2.289627 20,375 27 483 -3968
2021-09-24 09:08:10 GMT 42.668617 -2.301125 20,875 27 485 -3840
2021-09-24 09:08:06 GMT 42.660751 -2.306746 21,525 27 487 -3840
2021-09-24 09:07:59 GMT 42.646957 -2.316617 21,525 27 489 -3264
2021-09-24 09:07:57 GMT 42.643108 -2.319393 21,625 27 492 -2944
2021-09-24 09:07:47 GMT 42.620899 -2.335297 22,150 28 498 -4288
2021-09-24 09:07:39 GMT 42.607121 -2.345198 22,675 28 497 -5184
2021-09-24 09:07:36 GMT 42.601395 -2.349350 22,900 28 496 -5696
2021-09-24 09:07:30 GMT 42.587448 -2.359376 23,550 27 492 -6272
2021-09-24 09:07:26 GMT 42.581238 -2.363785 23,875 27 490 -6144
2021-09-24 09:07:16 GMT 42.560577 -2.378602 24,800 27 487 -4736
2021-09-24 09:07:09 GMT 42.545883 -2.389089 25,350 27 488 -4288
2021-09-24 09:07:06 GMT 42.540619 -2.392897 25,525 27 488 -4096
2021-09-24 09:06:54 GMT 42.516346 -2.410285 26,300 27 492 -4096
2021-09-24 09:06:46 GMT 42.499912 -2.422038 26,850 27 493 -3520
2021-09-24 09:06:35 GMT 42.478916 -2.437112 27,425 28 496 -2752
2021-09-24 09:06:28 GMT 42.463043 -2.448546 27,775 28 497 -2112
2021-09-24 09:06:24 GMT 42.456345 -2.453384 27,900 28 498 -2048
2021-09-24 09:06:17 GMT 42.441742 -2.463871 28,150 27 498 -1536
2021-09-24 09:06:15 GMT 42.436798 -2.467367 28,200 27 498 -1152
2021-09-24 09:06:08 GMT 42.424118 -2.476418 28,350 27 498 -896
2021-09-24 09:06:05 GMT 42.416630 -2.481697 28,400 27 499 -1024
2021-09-24 09:05:58 GMT 42.403130 -2.491278 28,525 27 499 -1152
2021-09-24 09:05:54 GMT 42.394775 -2.497205 28,625 27 497 -896
2021-09-24 09:05:48 GMT 42.382786 -2.505649 28,725 27 495 -512
2021-09-24 09:05:46 GMT 42.378433 -2.508753 28,775 27 493 -384
2021-09-24 09:05:44 GMT 42.374451 -2.511500 28,775 27 493 -384
2021-09-24 09:05:38 GMT 42.361954 -2.520364 28,800 27 496 -768
2021-09-24 09:05:36 GMT 42.358395 -2.522831 28,800 27 496 -896
2021-09-24 09:05:34 GMT 42.354172 -2.525857 28,825 27 496 -896
2021-09-24 09:05:27 GMT 42.340099 -2.535862 28,950 27 497 -960
2021-09-24 09:05:23 GMT 42.331787 -2.541774 29,000 27 499 -896
2021-09-24 09:05:17 GMT 42.319839 -2.550201 29,075 27 500 -832
2021-09-24 09:05:13 GMT 42.311470 -2.555918 29,125 24 501 -960
2021-09-24 09:05:07 GMT 42.298096 -2.563934 29,225 21 502 -960
2021-09-24 09:05:04 GMT 42.289169 -2.568437 29,300 19 503 -896
2021-09-24 09:04:57 GMT 42.275665 -2.574234 29,450 15 503 -896
2021-09-24 09:04:53 GMT 42.267105 -2.577230 29,450 12 503 -1024
2021-09-24 09:04:46 GMT 42.252254 -2.581276 29,600 8 503 -1024
2021-09-24 09:04:42 GMT 42.243210 -2.583036 29,675 6 501 -1088
2021-09-24 09:04:37 GMT 42.229675 -2.584598 29,775 358 497 -1216
2021-09-24 09:04:33 GMT 42.219063 -2.584981 29,875 359 499 -1216
2021-09-24 09:04:26 GMT 42.205189 -2.584342 30,000 356 495 -1216
2021-09-24 09:04:20 GMT 42.190620 -2.582554 30,125 354 492 -1024
2021-09-24 09:04:16 GMT 42.183197 -2.581163 30,275 350 488 -1920
2021-09-24 09:04:11 GMT 42.171951 -2.578402 30,325 348 486 -2304
2021-09-24 09:04:05 GMT 42.160126 -2.574569 30,525 345 484 -2880
2021-09-24 09:04:01 GMT 42.150677 -2.570801 30,725 342 483 -2944
2021-09-24 09:03:58 GMT 42.143044 -2.567224 30,900 341 483 -3328
2021-09-24 09:03:55 GMT 42.137466 -2.564371 31,200 337 480 -3968
2021-09-24 09:03:51 GMT 42.129639 -2.559814 31,300 335 479 -4288
2021-09-24 09:03:46 GMT 42.119110 -2.552761 31,700 331 473 -4736
2021-09-24 09:03:41 GMT 42.109909 -2.545769 32,075 328 468 -4224
2021-09-24 09:03:34 GMT 42.097748 -2.535287 32,525 326 465 -3584
2021-09-24 09:03:28 GMT 42.086201 -2.524237 32,875 322 463 -2624
2021-09-24 09:03:25 GMT 42.081894 -2.519739 32,975 321 463 -2752
2021-09-24 09:03:20 GMT 42.074066 -2.510938 33,200 318 461 -3072
2021-09-24 09:03:15 GMT 42.066093 -2.500923 33,450 316 461 -3072
2021-09-24 09:03:13 GMT 42.062073 -2.495395 33,600 314 459 -3328
2021-09-24 09:03:09 GMT 42.056503 -2.487317 33,825 312 457 -3584
2021-09-24 09:03:06 GMT 42.052406 -2.480738 34,025 309 455 -3584
2021-09-24 09:03:04 GMT 42.049519 -2.475884 34,125 308 454 -3712
2021-09-24 09:03:00 GMT 42.044304 -2.466431 34,375 305 450 -3520
2021-09-24 09:02:56 GMT 42.040237 -2.458378 34,600 303 448 -3392
2021-09-24 09:02:53 GMT 42.037308 -2.452198 34,725 301 447 -3264
2021-09-24 09:02:48 GMT 42.032108 -2.440051 35,000 299 445 -3200
2021-09-24 09:02:45 GMT 42.028896 -2.431683 35,175 296 444 -3264
2021-09-24 09:02:42 GMT 42.026615 -2.425168 35,300 294 443 -3328
2021-09-24 09:02:36 GMT 42.021423 -2.408253 35,700 290 440 -3456
2021-09-24 09:02:34 GMT 42.019634 -2.401215 35,850 288 438 -3392
2021-09-24 09:02:26 GMT 42.015583 -2.381861 36,250 283 435 -3264
2021-09-24 09:02:20 GMT 42.012978 -2.364360 36,600 279 433 -2880
2021-09-24 09:02:17 GMT 42.012417 -2.359122 36,700 277 433 -2752
2021-09-24 09:02:13 GMT 42.011536 -2.348765 36,875 275 433 -2624
2021-09-24 09:02:10 GMT 42.010803 -2.327229 37,225 271 433 -2432
2021-09-24 09:02:05 GMT 42.010803 -2.327229 37,200 270 433 -2368
2021-09-24 09:02:02 GMT 42.010895 -2.320238 37,300 268 433 -2368
2021-09-24 09:01:57 GMT 42.011578 -2.305596 37,525 264 433 -2560
2021-09-24 09:01:54 GMT 42.012138 -2.298634 37,625 263 434 -2624
2021-09-24 09:01:52 GMT 42.012695 -2.293268 37,725 261 433 -2624
2021-09-24 09:01:47 GMT 42.014790 -2.278449 37,975 257 433 -2496
2021-09-24 09:01:44 GMT 42.015930 -2.272048 38,100 256 433 -2432
2021-09-24 09:01:42 GMT 42.016754 -2.267803 38,150 254 432 -2368
2021-09-24 09:01:33 GMT 42.023254 -2.241960 38,575 248 431 -1920
2021-09-24 09:01:27 GMT 42.027222 -2.229905 38,725 245 430 -1472
2021-09-24 09:01:24 GMT 42.029984 -2.222484 38,800 243 431 -1024
2021-09-24 09:01:22 GMT 42.032364 -2.216429 38,850 241 430 -640
2021-09-24 09:01:18 GMT 42.036484 -2.206911 38,900 238 430 -192
2021-09-24 09:01:14 GMT 42.043167 -2.193271 38,925 232 429 0
2021-09-24 09:01:11 GMT 42.043167 -2.193271 38,925 234 430 0
2021-09-24 09:01:05 GMT 42.051636 -2.178477 38,925 230 429 0
2021-09-24 09:01:02 GMT 42.055153 -2.173057 38,950 228 428 -64
2021-09-24 09:00:58 GMT 42.061066 -2.164562 38,950 223 427 0
2021-09-24 09:00:55 GMT 42.065186 -2.159126 38,950 223 427 0
2021-09-24 09:00:51 GMT 42.070084 -2.153071 38,950 221 427 64
2021-09-24 09:00:46 GMT 42.078049 -2.144207 38,925 217 426 64
2021-09-24 09:00:44 GMT 42.080200 -2.142022 38,925 217 425 0
2021-09-24 09:00:41 GMT 42.085781 -2.136649 38,925 214 426 0
2021-09-24 09:00:36 GMT 42.093979 -2.129537 38,925 211 426 -128
2021-09-24 09:00:34 GMT 42.097469 -2.126813 38,925 210 426 -192
2021-09-24 09:00:30 GMT 42.104450 -2.121703 38,950 207 425 -64
2021-09-24 09:00:27 GMT 42.110596 -2.117552 38,950 207 425 -64
2021-09-24 09:00:24 GMT 42.116089 -2.113910 38,950 207 424 -128
2021-09-24 09:00:22 GMT 42.120026 -2.111310 38,975 207 424 0
2021-09-24 09:00:16 GMT 42.128906 -2.105380 38,975 207 424 0
2021-09-24 09:00:14 GMT 42.133686 -2.102221 38,975 207 424 0
2021-09-24 09:00:11 GMT 42.137829 -2.099475 38,975 207 423 -64
2021-09-24 09:00:06 GMT 42.146393 -2.093707 38,975 207 423 0
2021-09-24 09:00:04 GMT 42.151382 -2.090399 38,975 207 423 0
2021-09-24 09:00:00 GMT 42.156647 -2.086903 38,975 207 423 0
2021-09-24 08:59:54 GMT 42.175350 -2.074564 39,000 206 422 -64
2021-09-24 08:59:50 GMT 42.175350 -2.074564 39,000 206 422 -128
2021-09-24 08:59:43 GMT 42.192528 -2.063258 39,000 207 421 64
2021-09-24 08:59:40 GMT 42.192528 -2.063258 39,000 207 421 128
2021-09-24 08:59:35 GMT 42.200302 -2.058212 39,000 206 421 128
2021-09-24 08:59:31 GMT 42.208309 -2.052974 38,975 207 422 64
2021-09-24 08:59:26 GMT 42.218506 -2.046204 38,975 207 423 -64
2021-09-24 08:59:22 GMT 42.223812 -2.042691 39,000 207 423 -64
2021-09-24 08:59:19 GMT 42.231819 -2.037389 39,000 207 423 -64
2021-09-24 08:59:15 GMT 42.236008 -2.034579 39,000 207 423 -64
2021-09-24 08:59:12 GMT 42.242012 -2.030618 39,000 207 423 -64
2021-09-24 08:59:06 GMT 42.252857 -2.023401 39,000 207 423 0
2021-09-24 08:59:03 GMT 42.257515 -2.020335 39,000 207 423 64
2021-09-24 08:59:01 GMT 42.260788 -2.018176 39,000 207 423 64
2021-09-24 08:58:56 GMT 42.270630 -2.011684 39,000 207 423 64
2021-09-24 08:58:53 GMT 42.274887 -2.008875 38,975 207 423 64
2021-09-24 08:58:50 GMT 42.280792 -2.004942 38,975 207 424 64
2021-09-24 08:58:43 GMT 42.292786 -1.997077 38,975 207 423 0
2021-09-24 08:58:40 GMT 42.296722 -1.994456 38,975 207 424 -64
2021-09-24 08:58:33 GMT 42.310364 -1.985342 38,975 207 424 0
2021-09-24 08:58:30 GMT 42.314728 -1.982393 38,975 207 424 64
2021-09-24 08:58:24 GMT 42.325993 -1.974856 38,975 207 424 0
2021-09-24 08:58:19 GMT 42.337051 -1.967427 38,950 207 424 0
2021-09-24 08:58:14 GMT 42.343918 -1.962848 38,975 207 424 0
2021-09-24 08:58:11 GMT 42.349174 -1.959399 38,975 207 424 0
2021-09-24 08:58:04 GMT 42.360626 -1.951759 38,975 207 424 0
2021-09-24 08:58:02 GMT 42.370193 -1.945454 38,975 207 424 0
2021-09-24 08:57:55 GMT 42.377518 -1.940585 38,975 207 424 0
2021-09-24 08:57:52 GMT 42.382462 -1.937277 38,975 207 424 0
2021-09-24 08:57:50 GMT 42.386032 -1.934967 38,975 207 424 0
2021-09-24 08:57:42 GMT 42.400570 -1.925290 38,975 207 423 0
2021-09-24 08:57:39 GMT 42.404804 -1.922480 38,975 207 423 0
2021-09-24 08:57:35 GMT 42.412674 -1.917177 38,975 207 423 0
2021-09-24 08:57:33 GMT 42.417793 -1.913793 38,975 207 423 0
2021-09-24 08:57:29 GMT 42.422031 -1.910982 38,975 207 423 0
2021-09-24 08:57:24 GMT 42.431396 -1.904692 38,975 207 424 0
2021-09-24 08:57:20 GMT 42.438557 -1.899932 38,975 207 424 0
2021-09-24 08:57:17 GMT 42.443817 -1.896483 38,975 207 424 0
2021-09-24 08:57:14 GMT 42.449448 -1.892714 38,975 207 424 0
2021-09-24 08:57:11 GMT 42.454605 -1.889274 38,975 207 425 0
2021-09-24 08:57:09 GMT 42.457874 -1.887093 38,975 207 425 0
2021-09-24 08:57:07 GMT 42.461414 -1.884730 38,975 207 425 0
2021-09-24 08:57:03 GMT 42.467560 -1.880597 38,975 207 425 -64
2021-09-24 08:57:01 GMT 42.471863 -1.877726 38,975 207 425 -64
2021-09-24 08:56:59 GMT 42.476265 -1.874766 38,975 207 425 0
2021-09-24 08:56:57 GMT 42.479012 -1.872913 39,000 207 425 0
2021-09-24 08:56:54 GMT 42.483570 -1.869847 39,000 207 425 0
2021-09-24 08:56:50 GMT 42.492462 -1.863907 39,000 207 424 0
2021-09-24 08:56:47 GMT 42.496765 -1.861059 38,975 207 424 0
2021-09-24 08:56:44 GMT 42.501217 -1.858095 39,000 207 425 0
2021-09-24 08:56:40 GMT 42.509537 -1.852507 38,975 207 424 0
2021-09-24 08:56:37 GMT 42.519012 -1.846203 38,975 207 425 0
2021-09-24 08:56:34 GMT 42.519012 -1.846203 38,975 207 425 0
2021-09-24 08:56:31 GMT 42.525188 -1.842126 38,975 207 425 0
2021-09-24 08:56:29 GMT 42.527573 -1.840522 38,975 207 426 0
2021-09-24 08:56:26 GMT 42.533012 -1.836825 38,975 207 426 0
2021-09-24 08:56:24 GMT 42.537369 -1.833968 38,975 207 426 0
2021-09-24 08:56:20 GMT 42.544464 -1.829161 38,975 207 426 0
2021-09-24 08:56:17 GMT 42.548885 -1.826222 38,975 207 426 0
2021-09-24 08:56:14 GMT 42.555264 -1.821942 38,975 207 426 0
2021-09-24 08:56:08 GMT 42.565086 -1.815299 38,975 207 426 0
2021-09-24 08:56:05 GMT 42.569321 -1.812425 39,000 207 427 0
2021-09-24 08:56:03 GMT 42.573715 -1.809498 38,975 207 427 0
2021-09-24 08:55:59 GMT 42.580078 -1.805253 38,975 207 427 0
2021-09-24 08:55:54 GMT 42.590504 -1.798245 38,975 207 427 0
2021-09-24 08:55:49 GMT 42.597794 -1.793393 39,000 207 427 0
2021-09-24 08:55:46 GMT 42.604656 -1.788728 39,000 207 427 0
2021-09-24 08:55:44 GMT 42.608936 -1.785853 39,000 207 427 0
2021-09-24 08:55:39 GMT 42.616928 -1.780534 39,000 207 427 0
2021-09-24 08:55:36 GMT 42.622192 -1.776976 39,000 207 427 0
2021-09-24 08:55:34 GMT 42.626450 -1.774167 39,000 207 427 0
2021-09-24 08:55:28 GMT 42.635799 -1.767841 39,000 207 427 0
2021-09-24 08:55:26 GMT 42.640125 -1.764966 39,000 207 427 0
2021-09-24 08:55:22 GMT 42.646503 -1.760687 38,975 207 427 0
2021-09-24 08:55:19 GMT 42.652039 -1.757001 38,975 207 428 0
2021-09-24 08:55:16 GMT 42.658401 -1.752819 39,000 207 428 -64
2021-09-24 08:55:12 GMT 42.663391 -1.749510 39,000 207 428 -64
2021-09-24 08:55:09 GMT 42.669434 -1.745453 39,000 207 428 -64
2021-09-24 08:55:07 GMT 42.673325 -1.742894 39,000 207 428 0
2021-09-24 08:55:05 GMT 42.675972 -1.741141 39,000 207 428 0
2021-09-24 08:55:01 GMT 42.682724 -1.736670 39,000 207 428 0
2021-09-24 08:54:57 GMT 42.690811 -1.731345 39,000 207 428 0
2021-09-24 08:54:55 GMT 42.694126 -1.729133 39,000 207 428 0
2021-09-24 08:54:53 GMT 42.698410 -1.726323 39,000 207 428 64
2021-09-24 08:54:49 GMT 42.705860 -1.721340 39,000 207 428 64
2021-09-24 08:54:46 GMT 42.710312 -1.718362 38,975 207 429 64
2021-09-24 08:54:43 GMT 42.715988 -1.714491 38,975 208 429 0
2021-09-24 08:54:38 GMT 42.723923 -1.708885 38,975 209 429 0
2021-09-24 08:54:35 GMT 42.730251 -1.704286 38,975 209 429 0
2021-09-24 08:54:32 GMT 42.735466 -1.700518 38,975 209 429 0
2021-09-24 08:54:29 GMT 42.741623 -1.696014 38,975 209 429 0
2021-09-24 08:54:24 GMT 42.749313 -1.690459 38,975 209 429 0
2021-09-24 08:54:22 GMT 42.753761 -1.687168 38,975 209 430 0
2021-09-24 08:54:17 GMT 42.760849 -1.681969 38,975 209 430 0
2021-09-24 08:54:15 GMT 42.765106 -1.678911 38,975 209 430 0
2021-09-24 08:54:12 GMT 42.770195 -1.675160 38,975 209 430 0
2021-09-24 08:54:08 GMT 42.777130 -1.670113 38,975 209 430 0
2021-09-24 08:54:06 GMT 42.780487 -1.667675 38,975 209 430 0
2021-09-24 08:54:02 GMT 42.788025 -1.662129 39,000 209 430 -64
2021-09-24 08:53:57 GMT 42.797520 -1.655167 39,000 209 430 0
2021-09-24 08:53:53 GMT 42.804504 -1.650057 39,000 209 430 0
2021-09-24 08:53:51 GMT 42.807251 -1.648077 39,000 209 430 0
2021-09-24 08:53:47 GMT 42.815395 -1.642129 39,000 209 430 0
2021-09-24 08:53:43 GMT 42.822144 -1.637218 39,000 209 430 -64
2021-09-24 08:53:36 GMT 42.832718 -1.629490 39,025 209 430 0
2021-09-24 08:53:34 GMT 42.837616 -1.625849 39,025 209 430 0
2021-09-24 08:53:31 GMT 42.842880 -1.622016 39,025 209 430 0
2021-09-24 08:53:26 GMT 42.850891 -1.616140 39,025 209 430 0
2021-09-24 08:53:23 GMT 42.855618 -1.612636 39,025 209 430 0
2021-09-24 08:53:21 GMT 42.860226 -1.609301 39,025 209 430 0
2021-09-24 08:53:16 GMT 42.867004 -1.604323 39,025 209 431 0
2021-09-24 08:53:14 GMT 42.871445 -1.601061 39,025 209 431 0
2021-09-24 08:53:12 GMT 42.873867 -1.599295 39,025 209 431 0
2021-09-24 08:53:09 GMT 42.880524 -1.594456 39,025 209 431 -64
2021-09-24 08:53:05 GMT 42.887787 -1.589121 39,025 209 431 -64
2021-09-24 08:53:02 GMT 42.891907 -1.586119 39,025 209 431 0
2021-09-24 08:52:59 GMT 42.898071 -1.581573 39,050 209 431 0
2021-09-24 08:52:56 GMT 42.903900 -1.577368 39,050 209 431 0
2021-09-24 08:52:50 GMT 42.919861 -1.565683 39,025 209 431 64
2021-09-24 08:52:47 GMT 42.919861 -1.565683 39,025 209 431 64
2021-09-24 08:52:45 GMT 42.922897 -1.563444 39,025 209 431 64
2021-09-24 08:52:42 GMT 42.929031 -1.558947 39,025 209 432 0
2021-09-24 08:52:40 GMT 42.932243 -1.556593 39,025 209 432 0
2021-09-24 08:52:34 GMT 42.942390 -1.549138 39,025 209 433 0
2021-09-24 08:52:32 GMT 42.945557 -1.546849 39,025 209 433 0
2021-09-24 08:52:27 GMT 42.954208 -1.540449 39,025 209 433 0
2021-09-24 08:52:24 GMT 42.958786 -1.537128 39,025 209 433 0
2021-09-24 08:52:22 GMT 42.963364 -1.533743 39,025 209 433 0
2021-09-24 08:52:19 GMT 42.970367 -1.528569 39,025 209 433 0
2021-09-24 08:52:14 GMT 42.977829 -1.523076 39,025 209 433 0
2021-09-24 08:52:12 GMT 42.981308 -1.520521 39,025 209 433 64
2021-09-24 08:52:09 GMT 42.986618 -1.516624 39,000 209 433 64
2021-09-24 08:52:04 GMT 42.995319 -1.510228 39,000 209 434 0
2021-09-24 08:52:02 GMT 42.998768 -1.507677 39,000 209 433 0
2021-09-24 08:51:59 GMT 43.004398 -1.503557 39,000 209 434 0
2021-09-24 08:51:55 GMT 43.012024 -1.497909 39,000 209 434 0
2021-09-24 08:51:51 GMT 43.017334 -1.494013 39,000 209 434 0
2021-09-24 08:51:49 GMT 43.022041 -1.490544 39,000 209 434 0
2021-09-24 08:51:45 GMT 43.028961 -1.485454 39,000 209 434 0
2021-09-24 08:51:41 GMT 43.043922 -1.474522 39,000 209 433 64
2021-09-24 08:51:37 GMT 43.043922 -1.474522 39,000 209 433 0
2021-09-24 08:51:34 GMT 43.048531 -1.471122 39,000 209 433 0
2021-09-24 08:51:32 GMT 43.051941 -1.468655 38,975 209 434 0
2021-09-24 08:51:26 GMT 43.070206 -1.455177 38,975 209 433 0
2021-09-24 08:51:22 GMT 43.070206 -1.455177 38,975 209 433 0
2021-09-24 08:51:20 GMT 43.072678 -1.453325 38,975 209 433 0
2021-09-24 08:51:17 GMT 43.080139 -1.447832 38,975 209 433 64
2021-09-24 08:51:14 GMT 43.082520 -1.446044 38,975 209 433 0
2021-09-24 08:51:09 GMT 43.091721 -1.439273 38,975 209 433 0
2021-09-24 08:51:06 GMT 43.097828 -1.434762 38,975 209 432 0
2021-09-24 08:51:03 GMT 43.102295 -1.431480 38,975 209 433 0
2021-09-24 08:50:59 GMT 43.108292 -1.427073 38,950 209 433 0
2021-09-24 08:50:56 GMT 43.115471 -1.421749 38,950 209 432 64
2021-09-24 08:50:52 GMT 43.121979 -1.416981 38,950 209 432 64
2021-09-24 08:50:49 GMT 43.130974 -1.410304 38,950 209 432 0
2021-09-24 08:50:47 GMT 43.130974 -1.410304 38,950 209 432 0
2021-09-24 08:50:43 GMT 43.137909 -1.405204 38,950 209 431 0
2021-09-24 08:50:40 GMT 43.142349 -1.401907 38,950 209 431 0
2021-09-24 08:50:38 GMT 43.146755 -1.398599 38,950 209 431 0
2021-09-24 08:50:35 GMT 43.151222 -1.395264 38,950 209 431 -64
2021-09-24 08:50:32 GMT 43.156487 -1.391405 38,950 209 430 0
2021-09-24 08:50:29 GMT 43.162628 -1.386832 38,950 209 430 0
2021-09-24 08:50:26 GMT 43.168030 -1.382773 38,950 209 430 0
2021-09-24 08:50:22 GMT 43.173615 -1.378653 38,950 209 430 0
2021-09-24 08:50:19 GMT 43.179577 -1.374207 38,950 209 430 0
2021-09-24 08:50:15 GMT 43.187439 -1.368309 38,950 209 430 0
2021-09-24 08:50:09 GMT 43.198608 -1.360005 38,950 209 430 -128
2021-09-24 08:50:05 GMT 43.203362 -1.356485 38,975 209 430 -192
2021-09-24 08:50:02 GMT 43.209457 -1.351957 38,975 209 430 -192
2021-09-24 08:49:58 GMT 43.216209 -1.347002 38,975 209 429 -64
2021-09-24 08:49:55 GMT 43.221268 -1.343206 39,000 209 428 64
2021-09-24 08:49:52 GMT 43.226532 -1.339310 39,000 209 428 64
2021-09-24 08:49:48 GMT 43.239716 -1.329537 38,975 209 427 64
2021-09-24 08:49:45 GMT 43.239716 -1.329537 38,975 209 427 0
2021-09-24 08:49:42 GMT 43.244095 -1.326338 38,975 209 428 -64
2021-09-24 08:49:40 GMT 43.248287 -1.323199 38,975 209 428 -64
2021-09-24 08:49:35 GMT 43.256424 -1.317146 38,975 209 428 -128
2021-09-24 08:49:30 GMT 43.265533 -1.310375 39,000 209 428 -192
2021-09-24 08:49:25 GMT 43.273659 -1.304365 39,000 209 428 0
2021-09-24 08:49:22 GMT 43.280502 -1.299261 39,000 209 427 0
2021-09-24 08:49:17 GMT 43.287140 -1.294407 39,000 209 427 64
2021-09-24 08:49:14 GMT 43.292835 -1.290109 39,000 209 427 0
2021-09-24 08:49:09 GMT 43.301285 -1.283867 39,000 209 429 -128
2021-09-24 08:49:07 GMT 43.304615 -1.281411 39,000 209 428 -128
2021-09-24 08:49:03 GMT 43.312134 -1.275819 39,025 209 428 -64
2021-09-24 08:48:58 GMT 43.321697 -1.268725 39,025 209 428 0
2021-09-24 08:48:55 GMT 43.326912 -1.264866 39,025 209 428 64
2021-09-24 08:48:50 GMT 43.335800 -1.258254 39,000 209 429 64
2021-09-24 08:48:47 GMT 43.340012 -1.255124 39,000 209 429 -64
2021-09-24 08:48:44 GMT 43.345871 -1.250781 39,000 209 429 -128
2021-09-24 08:48:40 GMT 43.351631 -1.246490 39,000 209 429 -128
2021-09-24 08:48:38 GMT 43.354660 -1.244202 39,025 209 429 -64
2021-09-24 08:48:35 GMT 43.360386 -1.239951 39,025 209 429 0
2021-09-24 08:48:32 GMT 43.367367 -1.234785 39,025 209 429 0
2021-09-24 08:48:29 GMT 43.371414 -1.231746 39,025 209 429 0
2021-09-24 08:48:25 GMT 43.380066 -1.225295 39,025 209 429 0
2021-09-24 08:48:22 GMT 43.384232 -1.222165 39,025 209 429 0
2021-09-24 08:48:19 GMT 43.389130 -1.218524 39,025 209 429 0
2021-09-24 08:48:15 GMT 43.397720 -1.212093 39,025 209 429 0
2021-09-24 08:48:12 GMT 43.401993 -1.208879 39,025 209 430 0
2021-09-24 08:48:07 GMT 43.411964 -1.201433 39,025 209 430 64
2021-09-24 08:48:04 GMT 43.413895 -1.200001 39,025 209 429 0
2021-09-24 08:48:01 GMT 43.421459 -1.194371 39,025 209 429 0
2021-09-24 08:47:59 GMT 43.424698 -1.191953 39,025 209 429 0
2021-09-24 08:47:56 GMT 43.434635 -1.184496 39,025 209 429 64
2021-09-24 08:47:53 GMT 43.434635 -1.184496 39,025 209 430 64
2021-09-24 08:47:48 GMT 43.442230 -1.178795 39,000 209 430 0
2021-09-24 08:47:45 GMT 43.451248 -1.172088 39,000 209 431 0
2021-09-24 08:47:43 GMT 43.451248 -1.172088 39,000 209 431 0
2021-09-24 08:47:40 GMT 43.455780 -1.168703 39,000 209 431 0
2021-09-24 08:47:36 GMT 43.464569 -1.162124 39,000 209 431 0
2021-09-24 08:47:32 GMT 43.471413 -1.157030 39,000 209 431 0
2021-09-24 08:47:28 GMT 43.477844 -1.152223 39,000 209 431 0
2021-09-24 08:47:26 GMT 43.482422 -1.148774 39,000 209 431 0
2021-09-24 08:47:23 GMT 43.486401 -1.145848 39,000 209 431 0
2021-09-24 08:47:20 GMT 43.491985 -1.141663 39,000 209 430 64
2021-09-24 08:47:17 GMT 43.497246 -1.137739 39,000 209 430 64
2021-09-24 08:47:15 GMT 43.500916 -1.134977 39,000 209 430 0
2021-09-24 08:47:13 GMT 43.503204 -1.133292 39,000 209 431 0
2021-09-24 08:47:10 GMT 43.509167 -1.128780 39,000 209 431 0
2021-09-24 08:47:08 GMT 43.513458 -1.125588 39,000 209 431 0
2021-09-24 08:47:05 GMT 43.517174 -1.122763 39,000 209 431 0
2021-09-24 08:47:00 GMT 43.526138 -1.116070 39,000 209 430 64
2021-09-24 08:46:58 GMT 43.530811 -1.112562 39,000 209 430 64
2021-09-24 08:46:54 GMT 43.536400 -1.108377 38,975 209 430 0
2021-09-24 08:46:51 GMT 43.541611 -1.104453 39,000 209 430 0
2021-09-24 08:46:47 GMT 43.549210 -1.098697 39,000 209 430 0
2021-09-24 08:46:45 GMT 43.553528 -1.095494 39,000 209 430 0
2021-09-24 08:46:42 GMT 43.559280 -1.091160 39,000 209 430 0
2021-09-24 08:46:39 GMT 43.562073 -1.089052 39,000 209 430 64
2021-09-24 08:46:35 GMT 43.571033 -1.082350 38,975 209 430 64
2021-09-24 08:46:33 GMT 43.574104 -1.079995 38,975 209 430 0
2021-09-24 08:46:29 GMT 43.580200 -1.075383 38,975 209 430 0
2021-09-24 08:46:25 GMT 43.588257 -1.069251 38,975 209 430 64
2021-09-24 08:46:22 GMT 43.592960 -1.065739 38,975 209 430 64
2021-09-24 08:46:19 GMT 43.598282 -1.061650 38,975 209 430 64
2021-09-24 08:46:17 GMT 43.601761 -1.059031 38,975 209 430 64
2021-09-24 08:46:14 GMT 43.606659 -1.055390 38,975 209 430 64
2021-09-24 08:46:10 GMT 43.613937 -1.049833 38,975 209 430 0
2021-09-24 08:46:06 GMT 43.621124 -1.044421 38,975 209 430 0
2021-09-24 08:46:04 GMT 43.624420 -1.041913 38,975 209 430 0
2021-09-24 08:46:01 GMT 43.631699 -1.036420 38,975 209 430 -64
2021-09-24 08:45:57 GMT 43.637508 -1.031996 38,975 209 428 -64
2021-09-24 08:45:54 GMT 43.642502 -1.028244 38,975 209 428 -64
2021-09-24 08:45:50 GMT 43.649708 -1.022840 39,000 209 428 0
2021-09-24 08:45:47 GMT 43.654873 -1.018917 39,000 209 428 0
2021-09-24 08:45:44 GMT 43.658318 -1.016366 38,975 209 428 64
2021-09-24 08:45:41 GMT 43.663532 -1.012442 38,975 209 428 64
2021-09-24 08:45:38 GMT 43.669769 -1.007734 38,975 209 428 0
2021-09-24 08:45:34 GMT 43.676193 -1.002886 38,975 209 428 0
2021-09-24 08:45:32 GMT 43.685410 -0.995963 38,975 209 428 0
2021-09-24 08:45:29 GMT 43.685410 -0.995963 38,975 209 428 -64
2021-09-24 08:45:24 GMT 43.693634 -0.989792 38,975 209 428 -64
2021-09-24 08:45:22 GMT 43.697342 -0.986917 38,975 209 428 0
2021-09-24 08:45:18 GMT 43.704918 -0.981249 38,975 209 428 0
2021-09-24 08:45:16 GMT 43.707458 -0.979316 39,000 209 427 0
2021-09-24 08:45:13 GMT 43.711945 -0.975931 39,000 209 427 0
2021-09-24 08:45:11 GMT 43.716156 -0.972737 38,975 209 427 64
2021-09-24 08:45:07 GMT 43.723911 -0.966862 38,975 209 427 64
2021-09-24 08:45:05 GMT 43.726593 -0.964881 38,975 209 427 64
2021-09-24 08:45:02 GMT 43.731544 -0.961108 38,975 209 427 0
2021-09-24 08:44:57 GMT 43.740204 -0.954568 38,975 209 427 0
2021-09-24 08:44:54 GMT 43.746643 -0.949679 38,975 209 427 0
2021-09-24 08:44:52 GMT 43.750957 -0.946394 38,975 209 427 0
2021-09-24 08:44:46 GMT 43.758919 -0.940377 38,975 209 427 0
2021-09-24 08:44:44 GMT 43.763260 -0.937095 38,975 209 427 0
2021-09-24 08:44:41 GMT 43.768478 -0.933199 38,975 209 427 0
2021-09-24 08:44:37 GMT 43.775211 -0.928083 38,975 209 427 0
2021-09-24 08:44:34 GMT 43.781448 -0.923375 38,975 209 427 0
2021-09-24 08:44:31 GMT 43.791828 -0.915527 38,975 209 427 0
2021-09-24 08:44:28 GMT 43.791828 -0.915527 38,975 209 427 0
2021-09-24 08:44:24 GMT 43.797913 -0.910907 38,975 209 427 0
2021-09-24 08:44:21 GMT 43.803085 -0.907011 38,975 209 427 0
2021-09-24 08:44:15 GMT 43.813709 -0.898982 38,975 209 427 0
2021-09-24 08:44:12 GMT 43.818176 -0.895582 38,975 209 427 0
2021-09-24 08:44:10 GMT 43.821716 -0.892901 38,975 209 427 0
2021-09-24 08:44:07 GMT 43.826706 -0.889062 38,975 209 427 0
2021-09-24 08:44:04 GMT 43.831726 -0.885250 38,975 209 427 0
2021-09-24 08:44:02 GMT 43.834946 -0.882803 38,975 209 426 0
2021-09-24 08:44:00 GMT 43.838516 -0.880120 38,975 209 427 0
2021-09-24 08:43:57 GMT 43.845181 -0.875048 38,975 209 427 0
2021-09-24 08:43:54 GMT 43.850510 -0.870922 38,975 209 427 0
2021-09-24 08:43:49 GMT 43.857609 -0.865566 38,975 209 427 0
2021-09-24 08:43:46 GMT 43.863647 -0.860958 38,975 209 427 0
2021-09-24 08:43:44 GMT 43.866314 -0.858961 38,975 209 427 0
2021-09-24 08:43:40 GMT 43.873203 -0.853729 38,975 209 427 0
2021-09-24 08:43:36 GMT 43.880836 -0.847975 38,975 209 427 0
2021-09-24 08:43:33 GMT 43.885162 -0.844670 38,975 209 427 0
2021-09-24 08:43:30 GMT 43.899628 -0.833620 38,975 209 427 0
2021-09-24 08:43:25 GMT 43.899628 -0.833620 38,975 209 428 0
2021-09-24 08:43:23 GMT 43.902420 -0.831448 38,975 209 428 0
2021-09-24 08:43:20 GMT 43.908325 -0.826977 38,975 209 427 0
2021-09-24 08:43:16 GMT 43.915146 -0.821751 38,975 209 427 0
2021-09-24 08:43:13 GMT 43.920547 -0.817651 38,975 209 429 0
2021-09-24 08:43:09 GMT 43.927624 -0.812269 38,975 209 429 0
2021-09-24 08:43:05 GMT 43.934883 -0.806710 38,975 209 429 0
2021-09-24 08:43:03 GMT 43.938904 -0.803663 38,975 209 429 0
2021-09-24 08:43:01 GMT 43.943802 -0.799958 38,975 209 429 0
2021-09-24 08:42:58 GMT 43.947189 -0.797339 38,975 209 429 0
2021-09-24 08:42:55 GMT 43.951721 -0.793890 38,975 209 429 0
2021-09-24 08:42:53 GMT 43.955090 -0.791343 38,975 209 429 0
2021-09-24 08:42:50 GMT 43.961281 -0.786634 38,975 209 429 0
2021-09-24 08:42:45 GMT 43.969437 -0.780413 38,975 209 429 0
2021-09-24 08:42:42 GMT 43.974781 -0.776302 38,975 209 430 -64
2021-09-24 08:42:39 GMT 43.985905 -0.767800 38,975 209 430 -64
2021-09-24 08:42:36 GMT 43.985905 -0.767800 38,975 209 429 -64
2021-09-24 08:42:31 GMT 43.992935 -0.762373 38,975 209 430 -64
2021-09-24 08:42:28 GMT 43.998848 -0.757860 38,975 209 430 0
2021-09-24 08:42:25 GMT 44.004108 -0.753871 39,000 209 430 -64
2021-09-24 08:42:22 GMT 44.009926 -0.749425 39,000 209 430 0
2021-09-24 08:42:18 GMT 44.016449 -0.744451 39,000 209 430 0
2021-09-24 08:42:14 GMT 44.022545 -0.739811 39,000 209 430 0
2021-09-24 08:42:11 GMT 44.027618 -0.735757 39,000 209 430 0
2021-09-24 08:42:07 GMT 44.035717 -0.729675 39,000 209 430 -64
2021-09-24 08:42:04 GMT 44.041122 -0.725545 39,000 209 431 0
2021-09-24 08:41:59 GMT 44.049404 -0.719212 39,025 209 431 0
2021-09-24 08:41:55 GMT 44.057190 -0.713281 39,000 209 431 0
2021-09-24 08:41:53 GMT 44.060394 -0.710790 39,000 209 431 0
2021-09-24 08:41:50 GMT 44.065418 -0.706983 39,025 209 431 0
2021-09-24 08:41:47 GMT 44.069733 -0.703636 39,000 209 432 0
2021-09-24 08:41:44 GMT 44.076462 -0.698526 39,025 209 432 0
2021-09-24 08:41:42 GMT 44.084106 -0.692650 39,000 209 433 0
2021-09-24 08:41:39 GMT 44.084106 -0.692650 39,000 209 433 0
2021-09-24 08:41:36 GMT 44.088730 -0.689073 39,000 209 433 0
2021-09-24 08:41:33 GMT 44.094513 -0.684684 39,000 209 433 0
2021-09-24 08:41:30 GMT 44.099579 -0.680769 39,000 209 434 0
2021-09-24 08:41:27 GMT 44.106384 -0.675594 39,000 209 434 0
2021-09-24 08:41:24 GMT 44.111691 -0.671474 39,000 209 434 64
2021-09-24 08:41:18 GMT 44.122421 -0.663268 39,000 209 435 0
2021-09-24 08:41:14 GMT 44.130157 -0.657327 39,000 209 435 0
2021-09-24 08:41:09 GMT 44.138260 -0.651132 39,000 209 435 128
2021-09-24 08:41:06 GMT 44.142380 -0.647938 39,000 209 435 64
2021-09-24 08:41:03 GMT 44.147736 -0.643914 39,000 209 435 64
2021-09-24 08:40:58 GMT 44.156570 -0.637079 38,975 210 436 64
2021-09-24 08:40:55 GMT 44.160988 -0.633676 38,975 210 436 0
2021-09-24 08:40:51 GMT 44.169571 -0.627051 38,975 210 436 0
2021-09-24 08:40:47 GMT 44.176620 -0.621622 38,975 209 437 0
2021-09-24 08:40:43 GMT 44.183670 -0.616192 38,975 209 437 0
2021-09-24 08:40:40 GMT 44.187241 -0.613446 38,975 209 437 0
2021-09-24 08:40:37 GMT 44.193558 -0.608528 38,975 209 437 -64
2021-09-24 08:40:33 GMT 44.202282 -0.601903 38,975 210 436 0
2021-09-24 08:40:27 GMT 44.212196 -0.594267 38,975 209 437 0
2021-09-24 08:40:24 GMT 44.215687 -0.591520 38,975 209 437 0
2021-09-24 08:40:21 GMT 44.222214 -0.586526 38,975 209 437 0
2021-09-24 08:40:17 GMT 44.235241 -0.576514 38,975 209 437 0
2021-09-24 08:40:14 GMT 44.242035 -0.571224 38,975 209 437 0
2021-09-24 08:40:10 GMT 44.242035 -0.571224 38,975 209 437 0
2021-09-24 08:40:06 GMT 44.248974 -0.565930 38,975 209 437 -64
2021-09-24 08:40:01 GMT 44.256546 -0.560107 38,975 209 437 -64
2021-09-24 08:39:55 GMT 44.267853 -0.551409 39,000 209 437 -64
2021-09-24 08:39:52 GMT 44.272995 -0.547374 39,000 209 437 0
2021-09-24 08:39:48 GMT 44.280117 -0.541881 39,000 209 437 0
2021-09-24 08:39:46 GMT 44.285797 -0.537526 39,000 209 437 0
2021-09-24 08:39:41 GMT 44.292778 -0.532100 39,000 209 437 0
2021-09-24 08:39:38 GMT 44.299854 -0.526674 39,000 209 437 0
2021-09-24 08:39:35 GMT 44.303486 -0.523860 39,000 209 437 0
2021-09-24 08:39:31 GMT 44.310699 -0.518319 39,000 209 437 0
2021-09-24 08:39:25 GMT 44.320335 -0.510864 39,000 209 437 0
2021-09-24 08:39:22 GMT 44.326111 -0.506443 39,000 209 437 0
2021-09-24 08:39:19 GMT 44.331417 -0.502290 39,000 210 438 0
2021-09-24 08:39:17 GMT 44.339676 -0.495889 39,000 210 438 0
2021-09-24 08:39:14 GMT 44.339676 -0.495889 39,000 210 438 0
2021-09-24 08:39:11 GMT 44.346680 -0.490461 39,000 210 438 0
2021-09-24 08:39:08 GMT 44.349976 -0.487911 39,000 210 438 0
2021-09-24 08:39:05 GMT 44.355392 -0.483666 39,000 210 439 0
2021-09-24 08:39:02 GMT 44.367447 -0.474355 39,000 210 438 0
2021-09-24 08:38:59 GMT 44.367447 -0.474355 39,000 210 438 0
2021-09-24 08:38:55 GMT 44.373642 -0.469535 39,000 210 438 0
2021-09-24 08:38:52 GMT 44.379505 -0.464976 39,000 210 440 -64
2021-09-24 08:38:49 GMT 44.384995 -0.460706 39,000 210 438 0
2021-09-24 08:38:46 GMT 44.397568 -0.450908 39,000 210 439 0
2021-09-24 08:38:42 GMT 44.397568 -0.450908 39,000 210 439 0
2021-09-24 08:38:39 GMT 44.403198 -0.446554 39,000 210 439 0
2021-09-24 08:38:35 GMT 44.408707 -0.442265 39,000 210 439 0
2021-09-24 08:38:32 GMT 44.415115 -0.437295 39,000 210 439 0
2021-09-24 08:38:29 GMT 44.422165 -0.431802 39,000 210 439 64
2021-09-24 08:38:26 GMT 44.427750 -0.427420 39,000 210 439 64
2021-09-24 08:38:21 GMT 44.434811 -0.421969 39,000 210 440 -64
2021-09-24 08:38:17 GMT 44.441391 -0.416892 38,975 210 440 0
2021-09-24 08:38:14 GMT 44.445797 -0.413461 39,000 210 440 0
2021-09-24 08:38:10 GMT 44.453941 -0.407097 39,000 210 440 -64
2021-09-24 08:38:06 GMT 44.460159 -0.402309 39,000 210 440 -64
2021-09-24 08:38:04 GMT 44.464649 -0.398790 39,025 210 440 0
2021-09-24 08:38:00 GMT 44.471771 -0.393230 39,000 210 440 -64
2021-09-24 08:37:57 GMT 44.477776 -0.388608 39,000 210 440 -64
2021-09-24 08:37:54 GMT 44.481171 -0.385895 39,025 210 440 -64
2021-09-24 08:37:51 GMT 44.488064 -0.380569 39,025 210 440 0
2021-09-24 08:37:48 GMT 44.493576 -0.376282 39,025 210 440 -64
2021-09-24 08:37:44 GMT 44.501705 -0.369918 39,025 210 440 0
2021-09-24 08:37:39 GMT 44.507721 -0.365165 39,025 210 440 0
2021-09-24 08:37:35 GMT 44.517059 -0.357971 39,025 210 440 0
2021-09-24 08:37:31 GMT 44.523514 -0.352936 39,050 210 440 0
2021-09-24 08:37:28 GMT 44.528778 -0.348816 39,050 210 440 0
2021-09-24 08:37:26 GMT 44.531662 -0.346592 39,025 210 440 0
2021-09-24 08:37:23 GMT 44.537659 -0.341884 39,025 210 440 0
2021-09-24 08:37:18 GMT 44.545650 -0.335686 39,050 210 440 0
2021-09-24 08:37:15 GMT 44.551849 -0.330832 39,050 210 440 0
2021-09-24 08:37:12 GMT 44.556313 -0.327312 39,025 210 440 0
2021-09-24 08:37:09 GMT 44.562515 -0.322462 39,050 210 440 0
2021-09-24 08:37:04 GMT 44.570927 -0.315857 39,050 210 440 0
2021-09-24 08:37:01 GMT 44.577896 -0.310495 39,050 210 440 0
2021-09-24 08:36:58 GMT 44.581356 -0.307751 39,050 210 440 0
2021-09-24 08:36:53 GMT 44.592407 -0.299050 39,025 210 442 0
2021-09-24 08:36:49 GMT 44.597977 -0.294755 39,025 210 442 0
2021-09-24 08:36:45 GMT 44.605843 -0.288592 39,025 210 442 0
2021-09-24 08:36:42 GMT 44.610542 -0.284908 39,025 210 442 0
2021-09-24 08:36:39 GMT 44.615753 -0.280871 39,025 210 442 0
2021-09-24 08:36:35 GMT 44.623535 -0.274789 39,025 210 442 0
2021-09-24 08:36:32 GMT 44.627838 -0.271323 39,025 210 442 0
2021-09-24 08:36:29 GMT 44.633633 -0.266820 39,025 210 442 0
2021-09-24 08:36:25 GMT 44.642200 -0.260054 39,025 210 442 64
2021-09-24 08:36:22 GMT 44.648438 -0.255171 39,025 210 442 64
2021-09-24 08:36:18 GMT 44.652580 -0.251882 39,025 210 442 64
2021-09-24 08:36:13 GMT 44.661846 -0.244647 39,000 210 442 64
2021-09-24 08:36:10 GMT 44.667618 -0.240091 39,000 210 443 64
2021-09-24 08:36:06 GMT 44.677208 -0.232589 39,000 210 443 64
2021-09-24 08:36:03 GMT 44.685287 -0.226201 39,000 210 442 64
2021-09-24 08:36:00 GMT 44.685287 -0.226201 39,000 210 443 0
2021-09-24 08:35:57 GMT 44.689682 -0.222808 39,000 210 443 0
2021-09-24 08:35:54 GMT 44.696686 -0.217242 39,000 210 443 64
2021-09-24 08:35:51 GMT 44.702133 -0.213056 39,000 210 443 0
2021-09-24 08:35:48 GMT 44.706299 -0.209721 38,975 210 442 64
2021-09-24 08:35:46 GMT 44.710400 -0.206530 38,975 210 442 64
2021-09-24 08:35:43 GMT 44.716824 -0.201505 38,975 210 442 64
2021-09-24 08:35:39 GMT 44.723202 -0.196414 38,975 210 441 64
2021-09-24 08:35:36 GMT 44.728275 -0.192529 38,975 210 441 64
2021-09-24 08:35:33 GMT 44.739075 -0.183956 38,975 210 441 0
2021-09-24 08:35:30 GMT 44.739075 -0.183956 38,975 210 441 0
2021-09-24 08:35:27 GMT 44.743916 -0.180136 38,975 210 441 0
2021-09-24 08:35:24 GMT 44.756516 -0.170223 38,975 210 440 0
2021-09-24 08:35:20 GMT 44.756516 -0.170223 38,975 210 440 0
2021-09-24 08:35:17 GMT 44.760818 -0.166822 38,975 210 440 -64
2021-09-24 08:35:15 GMT 44.765236 -0.163321 38,975 210 440 -64
2021-09-24 08:35:11 GMT 44.771660 -0.158230 38,975 210 440 -64
2021-09-24 08:35:08 GMT 44.777481 -0.153678 38,975 210 439 0
2021-09-24 08:35:06 GMT 44.780926 -0.150928 38,975 210 439 0
2021-09-24 08:35:03 GMT 44.786911 -0.146092 38,975 210 439 0
2021-09-24 08:35:00 GMT 44.794510 -0.140206 38,975 210 438 0
2021-09-24 08:34:57 GMT 44.797031 -0.138133 38,975 210 438 64
2021-09-24 08:34:55 GMT 44.800827 -0.135171 38,975 210 438 64
2021-09-24 08:34:52 GMT 44.808609 -0.129024 38,975 210 438 0
2021-09-24 08:34:47 GMT 44.814674 -0.124266 38,975 210 438 0
2021-09-24 08:34:44 GMT 44.819458 -0.120457 38,950 210 437 0
2021-09-24 08:34:40 GMT 44.826313 -0.115021 38,950 210 434 0
2021-09-24 08:34:37 GMT 44.833111 -0.109662 38,950 210 437 0
2021-09-24 08:34:33 GMT 44.840141 -0.104102 38,950 210 436 0
2021-09-24 08:34:30 GMT 44.843956 -0.101021 38,950 210 436 0
2021-09-24 08:34:26 GMT 44.851406 -0.095193 38,975 210 436 0
2021-09-24 08:34:22 GMT 44.858597 -0.089525 38,975 210 436 -64
2021-09-24 08:34:19 GMT 44.865093 -0.084407 38,975 210 436 -64
2021-09-24 08:34:16 GMT 44.869656 -0.080790 38,975 210 436 0
2021-09-24 08:34:11 GMT 44.879570 -0.073019 38,975 210 435 0
2021-09-24 08:34:08 GMT 44.884132 -0.069401 38,975 210 435 0
2021-09-24 08:34:04 GMT 44.891163 -0.063908 38,975 210 435 0
2021-09-24 08:34:01 GMT 44.895721 -0.060291 38,975 210 435 0
2021-09-24 08:33:58 GMT 44.901310 -0.055869 38,975 210 435 0
2021-09-24 08:33:55 GMT 44.906242 -0.051984 38,975 210 435 0
2021-09-24 08:33:52 GMT 44.912201 -0.047295 38,975 210 435 0
2021-09-24 08:33:50 GMT 44.915497 -0.044665 39,000 210 434 0
2021-09-24 08:33:46 GMT 44.921558 -0.039859 38,975 210 434 0
2021-09-24 08:33:44 GMT 44.924652 -0.037471 39,000 210 434 0
2021-09-24 08:33:40 GMT 44.933304 -0.030539 38,975 210 434 0
2021-09-24 08:33:37 GMT 44.938786 -0.026327 39,000 210 434 0
2021-09-24 08:33:34 GMT 44.943878 -0.022234 39,000 210 434 0
2021-09-24 08:33:32 GMT 44.946560 -0.020164 39,000 210 434 0
2021-09-24 08:33:29 GMT 44.951817 -0.016011 39,000 210 434 0
2021-09-24 08:33:25 GMT 44.957932 -0.011183 39,000 210 434 0
2021-09-24 08:33:23 GMT 44.962990 -0.007168 39,000 210 433 0
2021-09-24 08:33:20 GMT 44.969929 -0.001675 39,000 210 434 0
2021-09-24 08:33:17 GMT 44.973312 0.001046 39,000 210 433 0
2021-09-24 08:33:14 GMT 44.978260 0.004957 39,000 210 433 0
2021-09-24 08:33:12 GMT 44.982914 0.008642 38,975 210 434 0
2021-09-24 08:33:08 GMT 44.989334 0.013798 38,975 210 434 0
2021-09-24 08:33:04 GMT 44.995438 0.018690 38,975 210 434 0
2021-09-24 08:33:02 GMT 44.999626 0.022040 38,975 210 434 0
2021-09-24 08:32:58 GMT 45.007729 0.028471 38,975 210 435 0
2021-09-24 08:32:55 GMT 45.011917 0.031753 38,975 210 434 0
2021-09-24 08:32:53 GMT 45.014664 0.033964 38,975 210 434 0
2021-09-24 08:32:50 GMT 45.020622 0.038720 38,975 210 434 0
2021-09-24 08:32:46 GMT 45.027786 0.044468 38,975 210 434 0
2021-09-24 08:32:41 GMT 45.036079 0.051046 38,975 210 434 0
2021-09-24 08:32:38 GMT 45.040421 0.054539 38,975 210 435 0
2021-09-24 08:32:35 GMT 45.047104 0.059902 38,975 210 435 64
2021-09-24 08:32:32 GMT 45.051811 0.063640 38,975 210 434 64
2021-09-24 08:32:29 GMT 45.056442 0.067357 38,950 210 435 64
2021-09-24 08:32:26 GMT 45.061020 0.071019 38,950 210 435 64
2021-09-24 08:32:23 GMT 45.069122 0.077493 38,950 210 435 64
2021-09-24 08:32:20 GMT 45.072994 0.080522 38,950 210 435 64
2021-09-24 08:32:17 GMT 45.077698 0.084206 38,950 210 435 0
2021-09-24 08:32:14 GMT 45.086929 0.091684 38,925 210 435 0
2021-09-24 08:32:12 GMT 45.086929 0.091684 38,950 210 435 0
2021-09-24 08:32:08 GMT 45.093933 0.097242 38,950 210 435 -64
2021-09-24 08:32:05 GMT 45.099152 0.101427 38,950 210 435 -64
2021-09-24 08:32:02 GMT 45.104229 0.105442 38,950 210 435 -64
2021-09-24 08:31:59 GMT 45.109039 0.109275 38,950 210 435 -64
2021-09-24 08:31:56 GMT 45.114101 0.113280 38,975 210 435 -64
2021-09-24 08:31:53 GMT 45.119732 0.117768 38,975 210 435 -64
2021-09-24 08:31:50 GMT 45.125519 0.122419 38,975 210 435 -64
2021-09-24 08:31:47 GMT 45.131104 0.126866 38,975 210 435 -64
2021-09-24 08:31:41 GMT 45.141907 0.135498 38,975 210 434 -64
2021-09-24 08:31:37 GMT 45.149059 0.141215 38,975 210 435 -64
2021-09-24 08:31:33 GMT 45.154175 0.145307 38,975 210 435 0
2021-09-24 08:31:28 GMT 45.165665 0.154463 39,000 210 435 0
2021-09-24 08:31:25 GMT 45.170288 0.158190 39,000 210 435 0
2021-09-24 08:31:23 GMT 45.171780 0.159369 39,000 210 435 0
2021-09-24 08:31:20 GMT 45.183151 0.168457 39,000 210 435 0
2021-09-24 08:31:17 GMT 45.183151 0.168457 39,000 210 435 0
2021-09-24 08:31:14 GMT 45.189606 0.173638 39,000 210 435 0
2021-09-24 08:31:10 GMT 45.195419 0.178266 39,000 210 436 0
2021-09-24 08:31:06 GMT 45.202057 0.183629 39,000 210 436 0
2021-09-24 08:31:03 GMT 45.207321 0.187814 39,000 210 436 0
2021-09-24 08:30:59 GMT 45.214233 0.193333 39,000 210 437 0
2021-09-24 08:30:56 GMT 45.220367 0.198277 39,000 210 437 0
2021-09-24 08:30:53 GMT 45.225266 0.202266 39,000 210 436 0
2021-09-24 08:30:49 GMT 45.231583 0.207367 39,000 210 437 0
2021-09-24 08:30:46 GMT 45.237743 0.212291 39,000 210 437 0
2021-09-24 08:30:43 GMT 45.243374 0.216846 39,000 210 437 0
2021-09-24 08:30:39 GMT 45.249481 0.221754 38,975 210 437 0
2021-09-24 08:30:37 GMT 45.254967 0.226158 39,000 210 437 0
2021-09-24 08:30:33 GMT 45.260227 0.230378 39,000 210 437 0
2021-09-24 08:30:28 GMT 45.273914 0.241364 39,000 210 437 64
2021-09-24 08:30:25 GMT 45.273914 0.241364 39,000 210 437 64
2021-09-24 08:30:22 GMT 45.279373 0.245754 39,000 210 438 64
2021-09-24 08:30:19 GMT 45.284107 0.249604 39,000 210 438 64
2021-09-24 08:30:16 GMT 45.291512 0.255499 38,975 210 439 64
2021-09-24 08:30:12 GMT 45.297890 0.260657 38,975 210 440 64
2021-09-24 08:30:08 GMT 45.303146 0.264878 38,975 210 440 0
2021-09-24 08:30:05 GMT 45.309200 0.269768 38,975 210 440 0
2021-09-24 08:30:02 GMT 45.316322 0.275462 38,975 210 440 0
2021-09-24 08:29:57 GMT 45.324051 0.281692 38,975 210 441 0
2021-09-24 08:29:54 GMT 45.329033 0.285712 38,975 210 441 0
2021-09-24 08:29:50 GMT 45.336319 0.291595 38,975 210 442 0
2021-09-24 08:29:47 GMT 45.346939 0.300162 38,950 210 442 0
2021-09-24 08:29:44 GMT 45.346939 0.300162 38,975 210 442 0
2021-09-24 08:29:39 GMT 45.356731 0.308086 38,950 210 441 0
2021-09-24 08:29:36 GMT 45.360077 0.310756 38,950 210 441 0
2021-09-24 08:29:33 GMT 45.365753 0.315334 38,975 210 441 -128
2021-09-24 08:29:28 GMT 45.375687 0.323377 38,975 210 441 -64
2021-09-24 08:29:25 GMT 45.381214 0.327781 38,975 210 441 0
2021-09-24 08:29:22 GMT 45.392574 0.336959 38,975 210 441 0
2021-09-24 08:29:19 GMT 45.392574 0.336959 38,975 210 441 0
2021-09-24 08:29:15 GMT 45.398579 0.341782 38,975 210 441 0
2021-09-24 08:29:10 GMT 45.406818 0.348414 38,975 210 441 0
2021-09-24 08:29:07 GMT 45.411942 0.352609 38,975 210 441 0
2021-09-24 08:29:04 GMT 45.418350 0.357710 39,000 210 442 -64
2021-09-24 08:29:01 GMT 45.421829 0.360587 38,975 210 442 -64
2021-09-24 08:28:58 GMT 45.428047 0.365563 38,975 210 442 -64
2021-09-24 08:28:55 GMT 45.435917 0.371927 39,000 210 442 -64
2021-09-24 08:28:51 GMT 45.440571 0.375679 39,000 210 442 -64
2021-09-24 08:28:48 GMT 45.446411 0.380402 39,000 210 442 0
2021-09-24 08:28:44 GMT 45.453697 0.386330 39,000 210 442 0
2021-09-24 08:28:40 GMT 45.462498 0.393498 39,000 210 442 0
2021-09-24 08:28:37 GMT 45.466408 0.396647 39,000 210 443 0
2021-09-24 08:28:34 GMT 45.470856 0.400282 39,000 210 443 0
2021-09-24 08:28:30 GMT 45.477764 0.405891 39,000 210 443 0
2021-09-24 08:28:27 GMT 45.483818 0.410781 39,000 210 443 0
2021-09-24 08:28:24 GMT 45.489349 0.415322 39,000 210 444 -64
2021-09-24 08:28:21 GMT 45.493130 0.418351 39,000 210 444 -64
2021-09-24 08:28:18 GMT 45.500015 0.423955 39,000 210 444 -64
2021-09-24 08:28:16 GMT 45.504532 0.427663 39,025 210 444 0
2021-09-24 08:28:12 GMT 45.510586 0.432553 39,025 210 444 0
2021-09-24 08:28:08 GMT 45.518921 0.439322 39,025 210 444 0
2021-09-24 08:28:05 GMT 45.522690 0.442334 39,025 210 444 0
2021-09-24 08:28:02 GMT 45.527020 0.445884 39,025 210 444 0
2021-09-24 08:27:56 GMT 45.537724 0.454593 39,025 210 444 0
2021-09-24 08:27:53 GMT 45.544693 0.460249 39,025 210 445 0
2021-09-24 08:27:49 GMT 45.551788 0.465981 39,025 210 445 0
2021-09-24 08:27:46 GMT 45.555599 0.469116 39,025 210 445 0
2021-09-24 08:27:41 GMT 45.564651 0.476431 39,025 210 448 0
2021-09-24 08:27:38 GMT 45.571289 0.481888 39,025 210 448 0
2021-09-24 08:27:35 GMT 45.576645 0.486214 39,000 210 447 0
2021-09-24 08:27:32 GMT 45.582043 0.490608 39,025 210 448 0
2021-09-24 08:27:27 GMT 45.590836 0.497801 39,025 210 447 0
2021-09-24 08:27:24 GMT 45.595551 0.501687 39,025 210 448 0
2021-09-24 08:27:21 GMT 45.600384 0.505646 39,025 210 448 0
2021-09-24 08:27:18 GMT 45.606155 0.510315 39,025 210 448 0
2021-09-24 08:27:15 GMT 45.613495 0.516357 39,025 210 448 0
2021-09-24 08:27:11 GMT 45.619053 0.520889 39,025 210 448 0
2021-09-24 08:27:07 GMT 45.627090 0.527478 39,000 210 448 64
2021-09-24 08:27:04 GMT 45.631947 0.531395 39,000 210 449 0
2021-09-24 08:27:01 GMT 45.637348 0.535858 39,000 210 449 0
2021-09-24 08:26:57 GMT 45.646225 0.543086 39,000 210 449 0
2021-09-24 08:26:54 GMT 45.656982 0.551862 39,000 210 449 0
2021-09-24 08:26:50 GMT 45.656982 0.551862 39,000 210 449 64
2021-09-24 08:26:46 GMT 45.663528 0.557221 39,000 210 449 64
2021-09-24 08:26:43 GMT 45.669468 0.562088 39,000 210 449 64
2021-09-24 08:26:40 GMT 45.674820 0.566483 39,000 210 450 64
2021-09-24 08:26:36 GMT 45.684223 0.574173 38,975 210 450 64
2021-09-24 08:26:32 GMT 45.689625 0.578636 38,975 210 450 64
2021-09-24 08:26:26 GMT 45.700798 0.587769 38,975 210 450 0
2021-09-24 08:26:22 GMT 45.708206 0.593798 38,975 210 450 0
2021-09-24 08:26:18 GMT 45.715275 0.599579 38,975 210 450 0
2021-09-24 08:26:15 GMT 45.720676 0.603973 38,975 210 450 0
2021-09-24 08:26:11 GMT 45.726448 0.608711 38,975 210 450 0
2021-09-24 08:26:06 GMT 45.738190 0.618316 38,975 210 450 0
2021-09-24 08:26:01 GMT 45.745998 0.624641 38,975 210 450 0
2021-09-24 08:25:55 GMT 45.756638 0.633389 38,975 210 449 0
2021-09-24 08:25:51 GMT 45.763969 0.639404 38,975 210 449 0
2021-09-24 08:25:45 GMT 45.781612 0.653893 38,975 210 449 0
2021-09-24 08:25:41 GMT 45.781612 0.653893 38,975 210 449 0
2021-09-24 08:25:37 GMT 45.793854 0.663918 38,975 210 448 0
2021-09-24 08:25:34 GMT 45.793854 0.663918 38,975 210 449 0
2021-09-24 08:25:31 GMT 45.799805 0.668826 38,975 210 448 0
2021-09-24 08:25:23 GMT 45.814430 0.680878 38,975 210 448 0
2021-09-24 08:25:20 GMT 45.818714 0.684380 38,975 210 448 0
2021-09-24 08:25:15 GMT 45.828396 0.692345 38,975 210 449 0
2021-09-24 08:25:11 GMT 45.836731 0.699211 38,975 210 449 0
2021-09-24 08:25:07 GMT 45.843018 0.704398 38,975 210 449 0
2021-09-24 08:25:03 GMT 45.851990 0.711700 38,975 210 449 0
2021-09-24 08:24:57 GMT 45.860844 0.718987 38,975 210 448 0
2021-09-24 08:24:54 GMT 45.867783 0.724696 38,975 210 448 0
2021-09-24 08:24:50 GMT 45.873737 0.729561 38,975 210 448 0
2021-09-24 08:24:45 GMT 45.882614 0.736888 38,975 211 449 -64
2021-09-24 08:24:42 GMT 45.888702 0.741979 38,975 211 449 -64
2021-09-24 08:24:36 GMT 45.905640 0.755913 39,000 210 448 -64
2021-09-24 08:24:33 GMT 45.905640 0.755913 39,000 210 448 -64
2021-09-24 08:24:29 GMT 45.910004 0.759567 39,000 210 448 -64
2021-09-24 08:24:26 GMT 45.915619 0.764220 39,000 210 448 0
2021-09-24 08:24:23 GMT 45.921501 0.769043 39,000 210 448 0
2021-09-24 08:24:20 GMT 45.928207 0.774603 39,000 210 448 0
2021-09-24 08:24:17 GMT 45.933197 0.778756 39,000 211 449 0
2021-09-24 08:24:14 GMT 45.937004 0.781883 39,000 210 448 0
2021-09-24 08:24:11 GMT 45.944000 0.787666 39,000 210 448 0
2021-09-24 08:24:08 GMT 45.947803 0.790810 39,000 211 449 0
2021-09-24 08:24:04 GMT 45.955669 0.797333 39,000 211 449 0
2021-09-24 08:24:01 GMT 45.961769 0.802345 39,000 211 449 0
2021-09-24 08:23:57 GMT 45.970474 0.809555 39,000 211 449 0
2021-09-24 08:23:54 GMT 45.973640 0.812233 39,000 211 449 0
2021-09-24 08:23:51 GMT 45.978516 0.816271 39,025 211 449 0
2021-09-24 08:23:48 GMT 45.983917 0.820692 39,025 210 450 0
2021-09-24 08:23:45 GMT 45.993668 0.828798 39,025 210 450 0
2021-09-24 08:23:43 GMT 45.993668 0.828798 39,025 210 450 0
2021-09-24 08:23:40 GMT 45.999435 0.833554 39,000 210 450 0
2021-09-24 08:23:37 GMT 46.012882 0.844711 39,000 210 450 0
2021-09-24 08:23:33 GMT 46.012882 0.844711 39,000 211 450 0
2021-09-24 08:23:28 GMT 46.020473 0.851028 39,000 210 450 0
2021-09-24 08:23:24 GMT 46.030201 0.859062 39,000 211 451 0
2021-09-24 08:23:17 GMT 46.040451 0.867585 39,000 211 451 0
2021-09-24 08:23:14 GMT 46.045578 0.871805 39,025 211 451 0
2021-09-24 08:23:09 GMT 46.055695 0.880246 39,000 211 451 0
2021-09-24 08:23:05 GMT 46.061623 0.885155 39,000 211 451 0
2021-09-24 08:23:01 GMT 46.069492 0.891747 39,000 211 451 64
2021-09-24 08:22:58 GMT 46.074940 0.896278 39,000 211 451 0
2021-09-24 08:22:53 GMT 46.085461 0.904999 39,000 210 452 0
2021-09-24 08:22:49 GMT 46.091080 0.909655 39,000 210 452 0
2021-09-24 08:22:46 GMT 46.097050 0.914612 39,000 211 452 0
2021-09-24 08:22:42 GMT 46.104401 0.920708 39,000 211 452 0
2021-09-24 08:22:39 GMT 46.109161 0.924660 39,000 211 452 0
2021-09-24 08:22:36 GMT 46.114975 0.929484 39,000 211 452 0
2021-09-24 08:22:32 GMT 46.122528 0.935848 39,000 211 452 0
2021-09-24 08:22:28 GMT 46.130859 0.942815 39,000 211 452 0
2021-09-24 08:22:23 GMT 46.138092 0.948844 39,000 211 452 0
2021-09-24 08:22:20 GMT 46.144180 0.953868 39,000 211 452 0
2021-09-24 08:22:17 GMT 46.147888 0.956949 39,000 210 452 0
2021-09-24 08:22:13 GMT 46.157593 0.965055 38,975 210 452 0
2021-09-24 08:22:07 GMT 46.167576 0.973320 39,000 210 453 0
2021-09-24 08:22:04 GMT 46.174255 0.978855 38,975 211 452 0
2021-09-24 08:22:01 GMT 46.178143 0.982109 39,000 211 453 0
2021-09-24 08:21:58 GMT 46.183590 0.986641 39,000 211 453 0
2021-09-24 08:21:55 GMT 46.189362 0.991447 39,000 211 453 0
2021-09-24 08:21:52 GMT 46.194435 0.995705 39,000 211 453 0
2021-09-24 08:21:48 GMT 46.201813 1.001900 39,000 211 453 0
2021-09-24 08:21:45 GMT 46.207626 1.006790 39,000 211 453 0
2021-09-24 08:21:42 GMT 46.220039 1.017197 39,000 211 453 0
2021-09-24 08:21:38 GMT 46.220039 1.017197 39,000 211 452 0
2021-09-24 08:21:33 GMT 46.228374 1.024132 39,000 211 453 0
2021-09-24 08:21:30 GMT 46.235638 1.030243 39,000 211 452 0
2021-09-24 08:21:27 GMT 46.239029 1.033050 39,000 211 452 0
2021-09-24 08:21:23 GMT 46.247040 1.039749 39,000 211 452 0
2021-09-24 08:21:17 GMT 46.259308 1.050065 39,000 211 452 64
2021-09-24 08:21:13 GMT 46.265442 1.055223 38,975 211 452 64
2021-09-24 08:21:10 GMT 46.271896 1.060650 38,975 211 452 64
2021-09-24 08:21:07 GMT 46.276508 1.064507 38,975 211 452 64
2021-09-24 08:21:04 GMT 46.281910 1.069038 38,975 211 452 0
2021-09-24 08:21:01 GMT 46.286564 1.072952 38,975 211 452 0
2021-09-24 08:20:57 GMT 46.294151 1.079338 38,975 211 452 0
2021-09-24 08:20:53 GMT 46.300995 1.085037 38,975 211 452 0
2021-09-24 08:20:50 GMT 46.306229 1.089455 38,975 211 452 0
2021-09-24 08:20:47 GMT 46.311890 1.094238 38,975 211 452 0
2021-09-24 08:20:44 GMT 46.319229 1.100375 38,975 211 452 0
2021-09-24 08:20:40 GMT 46.324085 1.104469 38,975 211 451 0
2021-09-24 08:20:37 GMT 46.329857 1.109344 38,975 211 451 0
2021-09-24 08:20:34 GMT 46.335258 1.113876 38,975 211 451 0
2021-09-24 08:20:31 GMT 46.341030 1.118752 38,975 211 451 0
2021-09-24 08:20:26 GMT 46.349121 1.125563 38,975 211 451 0
2021-09-24 08:20:23 GMT 46.355255 1.130721 38,975 211 451 0
2021-09-24 08:20:20 GMT 46.360863 1.135437 38,975 211 452 -64
2021-09-24 08:20:17 GMT 46.367378 1.140862 38,975 211 452 -64
2021-09-24 08:20:14 GMT 46.371338 1.144226 38,975 211 451 -64
2021-09-24 08:20:11 GMT 46.378372 1.150081 39,000 211 451 -64
2021-09-24 08:20:06 GMT 46.385239 1.155909 39,000 211 450 0
2021-09-24 08:20:03 GMT 46.392746 1.162206 39,000 211 450 0
2021-09-24 08:20:00 GMT 46.396408 1.165288 39,000 211 450 0
2021-09-24 08:19:57 GMT 46.407486 1.174666 39,000 211 450 0
2021-09-24 08:19:54 GMT 46.407486 1.174666 39,000 211 450 0
2021-09-24 08:19:50 GMT 46.414764 1.180762 39,000 211 450 0
2021-09-24 08:19:47 GMT 46.419937 1.185150 39,000 211 450 0
2021-09-24 08:19:44 GMT 46.425709 1.189957 39,000 211 451 0
2021-09-24 08:19:41 GMT 46.430923 1.194361 39,000 211 451 0
2021-09-24 08:19:38 GMT 46.436089 1.198746 39,000 211 451 0
2021-09-24 08:19:35 GMT 46.442982 1.204514 39,000 211 451 0
2021-09-24 08:19:32 GMT 46.447037 1.207960 39,000 211 451 0
2021-09-24 08:19:29 GMT 46.451385 1.211645 39,000 211 450 0
2021-09-24 08:19:25 GMT 46.459927 1.218864 39,000 211 451 0
2021-09-24 08:19:21 GMT 46.466766 1.224632 38,975 211 450 0
2021-09-24 08:19:18 GMT 46.471004 1.228203 38,975 211 450 0
2021-09-24 08:19:13 GMT 46.480179 1.235962 38,975 211 450 -64
2021-09-24 08:19:10 GMT 46.487160 1.241867 39,000 211 451 -64
2021-09-24 08:19:04 GMT 46.497437 1.250566 39,000 211 450 0
2021-09-24 08:19:01 GMT 46.503204 1.255456 39,000 211 450 0
2021-09-24 08:18:58 GMT 46.510345 1.261552 39,000 211 450 0
2021-09-24 08:18:54 GMT 46.516479 1.266710 39,000 211 450 0
2021-09-24 08:18:50 GMT 46.522568 1.271868 39,000 211 450 0
2021-09-24 08:18:47 GMT 46.528126 1.276611 39,000 211 450 0
2021-09-24 08:18:44 GMT 46.533150 1.280800 38,975 211 450 64
2021-09-24 08:18:41 GMT 46.539249 1.286018 38,975 211 448 0
2021-09-24 08:18:36 GMT 46.547424 1.292903 39,000 211 450 0
2021-09-24 08:18:33 GMT 46.552238 1.297005 38,975 211 450 0
2021-09-24 08:18:30 GMT 46.558384 1.302155 38,975 211 450 0
2021-09-24 08:18:26 GMT 46.564636 1.307507 38,975 211 449 0
2021-09-24 08:18:21 GMT 46.574909 1.316162 38,975 211 450 0
2021-09-24 08:18:18 GMT 46.579285 1.319900 38,975 211 449 0
2021-09-24 08:18:15 GMT 46.586361 1.325912 38,975 211 449 0
2021-09-24 08:18:11 GMT 46.594555 1.332848 38,975 211 448 0
2021-09-24 08:18:07 GMT 46.600067 1.337585 38,975 211 448 0
2021-09-24 08:18:03 GMT 46.606705 1.343216 39,000 211 448 0
2021-09-24 08:17:59 GMT 46.615860 1.350983 39,000 211 447 0
2021-09-24 08:17:56 GMT 46.619133 1.353790 39,000 211 445 0
2021-09-24 08:17:52 GMT 46.625977 1.359558 39,000 211 445 0
2021-09-24 08:17:49 GMT 46.637146 1.369004 38,975 211 445 0
2021-09-24 08:17:46 GMT 46.646927 1.377342 38,975 211 444 0
2021-09-24 08:17:40 GMT 46.646927 1.377342 38,975 211 444 0
2021-09-24 08:17:36 GMT 46.654175 1.383473 38,975 211 443 0
2021-09-24 08:17:33 GMT 46.660217 1.388632 38,975 211 442 0
2021-09-24 08:17:30 GMT 46.666580 1.394058 38,975 211 442 0
2021-09-24 08:17:26 GMT 46.673740 1.400139 38,975 211 441 0
2021-09-24 08:17:21 GMT 46.682163 1.407349 39,000 211 440 -64
2021-09-24 08:17:18 GMT 46.686584 1.411073 39,000 211 439 -64
2021-09-24 08:17:15 GMT 46.692684 1.416275 39,000 211 439 -64
2021-09-24 08:17:12 GMT 46.697247 1.420189 39,000 211 438 0
2021-09-24 08:17:09 GMT 46.701157 1.423485 39,000 211 437 0
2021-09-24 08:17:04 GMT 46.711121 1.431974 39,000 211 437 0
2021-09-24 08:17:00 GMT 46.717918 1.437698 39,000 211 437 0
2021-09-24 08:16:57 GMT 46.722481 1.441544 39,000 211 437 0
2021-09-24 08:16:53 GMT 46.730438 1.448341 38,975 211 437 -64
2021-09-24 08:16:49 GMT 46.736206 1.453210 39,000 211 437 -64
2021-09-24 08:16:45 GMT 46.743896 1.459775 39,000 211 437 -64
2021-09-24 08:16:42 GMT 46.749435 1.464531 39,000 210 436 64
2021-09-24 08:16:39 GMT 46.754833 1.469147 39,000 211 436 64
2021-09-24 08:16:35 GMT 46.762070 1.475249 39,000 211 437 64
2021-09-24 08:16:32 GMT 46.768570 1.480877 39,000 210 436 64
2021-09-24 08:16:29 GMT 46.772141 1.483891 39,000 208 436 0
2021-09-24 08:16:24 GMT 46.780670 1.490913 38,975 209 437 64
2021-09-24 08:16:22 GMT 46.784252 1.493797 38,975 209 436 64
2021-09-24 08:16:18 GMT 46.790306 1.498535 38,975 208 436 0
2021-09-24 08:16:15 GMT 46.796406 1.503067 38,975 206 436 0
2021-09-24 08:16:12 GMT 46.802547 1.507530 38,975 206 436 0
2021-09-24 08:16:08 GMT 46.809219 1.512295 39,000 205 434 0
2021-09-24 08:16:05 GMT 46.815212 1.516388 39,000 205 435 0
2021-09-24 08:16:02 GMT 46.820526 1.519865 39,000 203 432 0
2021-09-24 08:15:59 GMT 46.824966 1.522812 39,000 203 433 0
2021-09-24 08:15:56 GMT 46.831413 1.526825 39,000 203 433 0
2021-09-24 08:15:53 GMT 46.837463 1.530583 39,000 203 432 0
2021-09-24 08:15:50 GMT 46.843689 1.534335 39,000 201 431 0
2021-09-24 08:15:46 GMT 46.849148 1.537399 39,000 201 430 0
2021-09-24 08:15:42 GMT 46.859577 1.543098 39,000 200 429 0
2021-09-24 08:15:38 GMT 46.864151 1.545455 39,000 200 428 0
2021-09-24 08:15:35 GMT 46.871338 1.549072 39,000 200 427 0
2021-09-24 08:15:31 GMT 46.877079 1.552030 39,000 200 427 0
2021-09-24 08:15:28 GMT 46.884201 1.555622 38,975 200 426 0
2021-09-24 08:15:24 GMT 46.889835 1.558439 38,975 200 425 0
2021-09-24 08:15:21 GMT 46.895966 1.561569 38,975 200 424 64
2021-09-24 08:15:18 GMT 46.902077 1.564636 38,975 200 425 0
2021-09-24 08:15:15 GMT 46.907291 1.567242 38,975 200 424 0
2021-09-24 08:15:12 GMT 46.912785 1.570059 38,975 200 424 128
2021-09-24 08:15:09 GMT 46.918324 1.572876 38,975 200 423 320
2021-09-24 08:15:06 GMT 46.924438 1.575920 38,950 200 423 512
2021-09-24 08:15:03 GMT 46.929077 1.578299 38,925 200 423 896
2021-09-24 08:15:00 GMT 46.934784 1.581207 38,825 200 424 960
2021-09-24 08:14:57 GMT 46.939957 1.583817 38,850 200 424 960
2021-09-24 08:14:54 GMT 46.945324 1.586538 38,800 200 425 960
2021-09-24 08:14:51 GMT 46.951813 1.589790 38,750 200 425 960
2021-09-24 08:14:48 GMT 46.957764 1.592812 38,700 200 426 960
2021-09-24 08:14:41 GMT 46.970078 1.599060 38,600 200 427 960
2021-09-24 08:14:38 GMT 46.976608 1.602455 38,525 200 429 896
2021-09-24 08:14:34 GMT 46.985779 1.607162 38,450 200 429 960
2021-09-24 08:14:31 GMT 46.989689 1.609145 38,325 200 432 896
2021-09-24 08:14:28 GMT 46.995483 1.612106 38,375 200 430 960
2021-09-24 08:14:23 GMT 47.004868 1.616844 38,300 200 432 960
2021-09-24 08:14:20 GMT 47.009239 1.619075 38,225 200 432 960
2021-09-24 08:14:17 GMT 47.014709 1.621857 38,200 200 432 896
2021-09-24 08:14:12 GMT 47.024975 1.627103 38,075 200 432 960
2021-09-24 08:14:08 GMT 47.034843 1.632104 38,025 200 433 960
2021-09-24 08:14:04 GMT 47.040390 1.634903 37,975 200 434 960
2021-09-24 08:14:00 GMT 47.047531 1.638542 37,725 200 436 960
2021-09-24 08:13:57 GMT 47.053047 1.641329 37,875 200 435 960
2021-09-24 08:13:53 GMT 47.061218 1.645477 37,775 200 436 960
2021-09-24 08:13:50 GMT 47.066162 1.648018 37,625 200 437 896
2021-09-24 08:13:46 GMT 47.073204 1.651611 37,700 200 436 896
2021-09-24 08:13:42 GMT 47.082748 1.656471 37,600 200 437 896
2021-09-24 08:13:39 GMT 47.086716 1.658455 37,575 200 437 896
2021-09-24 08:13:36 GMT 47.092243 1.661330 37,525 200 438 896
2021-09-24 08:13:33 GMT 47.101593 1.666077 37,350 200 439 960
2021-09-24 08:13:30 GMT 47.105232 1.667950 37,300 200 438 960
2021-09-24 08:13:27 GMT 47.111160 1.671021 37,375 200 438 960
2021-09-24 08:13:21 GMT 47.122086 1.676612 37,150 200 440 960
2021-09-24 08:13:17 GMT 47.130341 1.680840 37,200 200 439 960
2021-09-24 08:13:14 GMT 47.135864 1.683655 37,175 200 439 960
2021-09-24 08:13:11 GMT 47.141216 1.686401 37,050 200 440 960
2021-09-24 08:13:07 GMT 47.149933 1.690865 37,050 200 440 960
2021-09-24 08:13:05 GMT 47.155136 1.693514 37,000 200 440 960
2021-09-24 08:13:00 GMT 47.164680 1.698444 36,825 200 441 960
2021-09-24 08:12:57 GMT 47.169334 1.700839 36,875 200 441 960
2021-09-24 08:12:51 GMT 47.179962 1.706245 36,750 200 441 960
2021-09-24 08:12:48 GMT 47.187351 1.709994 36,725 200 441 960
2021-09-24 08:12:44 GMT 47.192749 1.712740 36,675 200 442 1024
2021-09-24 08:12:41 GMT 47.199036 1.716050 36,625 200 442 1024
2021-09-24 08:12:37 GMT 47.214615 1.724030 36,475 200 442 1024
2021-09-24 08:12:33 GMT 47.214615 1.724030 36,475 200 442 1024
2021-09-24 08:12:30 GMT 47.222397 1.728012 36,425 200 443 1024
2021-09-24 08:12:27 GMT 47.225830 1.729729 36,375 200 443 960
2021-09-24 08:12:23 GMT 47.233521 1.733711 36,300 200 444 960
2021-09-24 08:12:19 GMT 47.252884 1.743668 36,125 200 444 960
2021-09-24 08:12:13 GMT 47.252884 1.743668 36,125 200 444 960
2021-09-24 08:12:10 GMT 47.259064 1.746895 36,050 200 444 832
2021-09-24 08:12:07 GMT 47.264877 1.749847 36,025 200 444 832
2021-09-24 08:12:04 GMT 47.272541 1.753798 35,950 200 444 832
2021-09-24 08:11:58 GMT 47.282364 1.758842 35,925 200 444 1088
2021-09-24 08:11:55 GMT 47.286831 1.761122 35,875 200 444 1088
2021-09-24 08:11:52 GMT 47.292480 1.763992 35,825 200 444 1152
2021-09-24 08:11:49 GMT 47.299213 1.767461 35,325 200 444 1344
2021-09-24 08:11:46 GMT 47.304337 1.770137 35,325 200 445 1472
2021-09-24 08:11:43 GMT 47.311844 1.774017 35,425 200 448 1088
2021-09-24 08:11:38 GMT 47.323002 1.779715 35,450 200 447 1408
2021-09-24 08:11:35 GMT 47.326775 1.781687 35,400 200 448 1152
2021-09-24 08:11:32 GMT 47.331524 1.784152 35,275 200 448 1088
2021-09-24 08:11:28 GMT 47.340927 1.789011 35,250 200 448 1088
2021-09-24 08:11:25 GMT 47.345955 1.791617 35,175 200 448 1088
2021-09-24 08:11:22 GMT 47.352192 1.794856 35,100 200 448 1088
2021-09-24 08:11:19 GMT 47.358055 1.797814 35,025 200 448 1152
2021-09-24 08:11:16 GMT 47.363754 1.800797 35,025 200 448 1216
2021-09-24 08:11:13 GMT 47.371372 1.804716 34,725 200 455 0
2021-09-24 08:11:10 GMT 47.376820 1.807533 34,725 200 449 1472
2021-09-24 08:11:07 GMT 47.382111 1.810272 34,850 200 449 1472
2021-09-24 08:11:04 GMT 47.388176 1.813378 34,775 200 450 1536
2021-09-24 08:11:01 GMT 47.392879 1.815843 34,700 200 450 1664
2021-09-24 08:10:57 GMT 47.402328 1.820702 33,575 200 453 1920
2021-09-24 08:10:54 GMT 47.407242 1.823250 34,375 200 453 1920
2021-09-24 08:10:50 GMT 47.414749 1.827095 34,375 200 453 1856
2021-09-24 08:10:47 GMT 47.419922 1.829773 34,325 200 456 1088
2021-09-24 08:10:44 GMT 47.426769 1.833379 34,000 200 455 1536
2021-09-24 08:10:40 GMT 47.433746 1.836983 34,050 200 457 1280
2021-09-24 08:10:36 GMT 47.442993 1.841721 33,950 200 457 1088
2021-09-24 08:10:32 GMT 47.450695 1.845774 33,950 200 456 1024
2021-09-24 08:10:28 GMT 47.458054 1.849548 33,875 200 456 1024
2021-09-24 08:10:25 GMT 47.463272 1.852226 33,825 200 456 960
2021-09-24 08:10:22 GMT 47.477188 1.859436 33,750 200 455 0
2021-09-24 08:10:19 GMT 47.477188 1.859436 33,600 200 455 1152
2021-09-24 08:10:16 GMT 47.483330 1.862535 33,650 200 455 960
2021-09-24 08:10:12 GMT 47.492779 1.867535 33,575 200 455 1152
2021-09-24 08:10:09 GMT 47.497009 1.869667 33,500 200 455 1152
2021-09-24 08:10:06 GMT 47.503052 1.872757 33,425 200 455 1152
2021-09-24 08:10:01 GMT 47.512985 1.877975 33,400 200 455 1216
2021-09-24 08:09:57 GMT 47.522827 1.883057 33,275 200 455 1280
2021-09-24 08:09:54 GMT 47.526669 1.885071 33,250 200 455 1344
2021-09-24 08:09:51 GMT 47.532806 1.888206 33,150 200 455 1408
2021-09-24 08:09:47 GMT 47.539948 1.891983 33,075 200 455 1408
2021-09-24 08:09:44 GMT 47.548038 1.896128 33,000 200 457 1344
2021-09-24 08:09:41 GMT 47.552307 1.898369 32,800 200 457 1280
2021-09-24 08:09:38 GMT 47.558624 1.901665 32,875 200 457 1280
2021-09-24 08:09:35 GMT 47.562885 1.903874 32,825 200 457 1152
2021-09-24 08:09:32 GMT 47.571175 1.908170 32,750 200 457 1024
2021-09-24 08:09:28 GMT 47.577759 1.911621 32,700 200 456 1152
2021-09-24 08:09:25 GMT 47.584347 1.915002 32,625 200 456 1344
2021-09-24 08:09:21 GMT 47.591309 1.918625 32,500 200 456 1408
2021-09-24 08:09:18 GMT 47.597847 1.922044 32,475 200 456 1472
2021-09-24 08:09:14 GMT 47.605762 1.926129 32,375 200 456 1664
2021-09-24 08:09:11 GMT 47.612000 1.929337 32,250 200 457 1856
2021-09-24 08:09:08 GMT 47.618362 1.932632 32,200 200 460 1216
2021-09-24 08:09:03 GMT 47.628387 1.937851 32,000 200 459 1216
2021-09-24 08:08:58 GMT 47.638580 1.943172 31,900 200 460 1216
2021-09-24 08:08:55 GMT 47.643749 1.945777 31,775 200 460 1280
2021-09-24 08:08:52 GMT 47.648849 1.948425 31,775 200 460 1280
2021-09-24 08:08:48 GMT 47.658646 1.953524 31,675 200 459 960
2021-09-24 08:08:44 GMT 47.667297 1.958038 31,600 200 459 960
2021-09-24 08:08:38 GMT 47.678009 1.963600 31,475 200 458 896
2021-09-24 08:08:35 GMT 47.683228 1.966278 31,500 200 458 832
2021-09-24 08:08:30 GMT 47.692722 1.971201 31,375 200 456 768
2021-09-24 08:08:27 GMT 47.699471 1.974722 31,375 200 456 768
2021-09-24 08:08:23 GMT 47.707214 1.978775 31,325 200 455 960
2021-09-24 08:08:20 GMT 47.714355 1.982414 31,175 200 453 1088
2021-09-24 08:08:15 GMT 47.723259 1.987117 31,150 200 453 1024
2021-09-24 08:08:12 GMT 47.730007 1.990568 30,800 185 449 896
2021-09-24 08:08:09 GMT 47.736294 1.993948 31,025 200 453 1472
2021-09-24 08:08:06 GMT 47.741043 1.996413 31,025 200 453 1536
2021-09-24 08:08:02 GMT 47.750214 2.001131 30,875 200 453 1600
2021-09-24 08:07:58 GMT 47.756172 2.004160 30,825 199 453 1664
2021-09-24 08:07:55 GMT 47.762966 2.007399 30,725 197 454 1600
2021-09-24 08:07:52 GMT 47.769394 2.010216 30,700 197 454 1536
2021-09-24 08:07:49 GMT 47.775284 2.012558 30,575 194 453 1344
2021-09-24 08:07:45 GMT 47.783844 2.015511 30,450 193 453 1280
2021-09-24 08:07:42 GMT 47.789978 2.017365 30,375 190 451 1088
2021-09-24 08:07:39 GMT 47.796345 2.019019 30,375 189 451 1024
2021-09-24 08:07:34 GMT 47.804958 2.020851 30,200 182 447 768
2021-09-24 08:07:31 GMT 47.811615 2.021907 30,150 183 447 832
2021-09-24 08:07:27 GMT 47.822414 2.023175 30,125 182 447 768
2021-09-24 08:07:24 GMT 47.827305 2.023527 30,125 182 447 768
2021-09-24 08:07:21 GMT 47.832458 2.023750 30,050 179 445 896
2021-09-24 08:07:18 GMT 47.839417 2.023888 30,050 179 445 896
2021-09-24 08:07:15 GMT 47.846203 2.023738 29,975 177 442 960
2021-09-24 08:07:09 GMT 47.859512 2.022995 29,900 177 442 960
2021-09-24 08:07:04 GMT 47.866882 2.022583 29,800 177 440 1152
2021-09-24 08:07:00 GMT 47.880978 2.021766 28,050 177 439 1152
2021-09-24 08:06:57 GMT 47.880978 2.021766 29,650 177 440 1216
2021-09-24 08:06:54 GMT 47.888901 2.021278 29,575 177 439 1152
2021-09-24 08:06:51 GMT 47.894756 2.020921 29,525 177 438 1216
2021-09-24 08:06:48 GMT 47.901077 2.020523 29,525 177 437 1280
2021-09-24 08:06:44 GMT 47.908310 2.020111 29,425 177 437 1280
2021-09-24 08:06:40 GMT 47.917145 2.019562 29,350 177 437 1344
2021-09-24 08:06:37 GMT 47.922596 2.019231 29,300 177 436 1280
2021-09-24 08:06:34 GMT 47.928650 2.018808 29,150 177 435 1216
2021-09-24 08:06:31 GMT 47.934494 2.018463 29,000 177 434 1280
2021-09-24 08:06:28 GMT 47.940903 2.018051 29,025 177 434 1280
2021-09-24 08:06:24 GMT 47.948757 2.017611 29,025 177 433 1344
2021-09-24 08:06:20 GMT 47.958023 2.017048 28,925 177 434 1344
2021-09-24 08:06:16 GMT 47.965439 2.016541 28,750 177 433 1408
2021-09-24 08:06:13 GMT 47.973404 2.016060 28,750 177 433 1536
2021-09-24 08:06:10 GMT 47.976608 2.015854 28,700 177 433 1600
2021-09-24 08:06:07 GMT 47.982788 2.015498 28,525 177 432 1600
2021-09-24 08:06:03 GMT 47.990421 2.015005 28,525 177 432 1600
2021-09-24 08:06:00 GMT 47.996429 2.014583 28,300 177 432 1408
2021-09-24 08:05:57 GMT 48.004623 2.014069 28,175 177 432 1472
2021-09-24 08:05:54 GMT 48.008347 2.013808 28,300 177 432 1408
2021-09-24 08:05:51 GMT 48.014923 2.013382 28,200 177 430 1216
2021-09-24 08:05:48 GMT 48.022156 2.012901 27,850 177 429 960
2021-09-24 08:05:44 GMT 48.029343 2.012421 27,950 177 430 1088
2021-09-24 08:05:39 GMT 48.041023 2.011625 27,950 177 428 832
2021-09-24 08:05:36 GMT 48.044357 2.011391 27,925 177 428 832
2021-09-24 08:05:33 GMT 48.050476 2.010991 27,900 177 426 832
2021-09-24 08:05:29 GMT 48.058296 2.010568 27,700 178 424 1344
2021-09-24 08:05:26 GMT 48.073658 2.009935 27,625 178 424 1344
2021-09-24 08:05:22 GMT 48.073658 2.009935 27,550 178 421 1088
2021-09-24 08:05:17 GMT 48.083176 2.009605 27,550 178 422 1152
2021-09-24 08:05:14 GMT 48.087299 2.009512 27,400 178 421 1024
2021-09-24 08:05:11 GMT 48.094116 2.009331 27,450 178 421 1024
2021-09-24 08:05:08 GMT 48.098656 2.009160 27,375 178 422 1024
2021-09-24 08:05:05 GMT 48.104523 2.009019 27,350 178 422 1024
2021-09-24 08:05:02 GMT 48.110916 2.008850 27,300 178 422 1024
2021-09-24 08:04:59 GMT 48.116951 2.008597 27,150 178 423 896
2021-09-24 08:04:56 GMT 48.121765 2.008507 27,200 178 423 1024
2021-09-24 08:04:53 GMT 48.128860 2.008301 27,150 178 423 896
2021-09-24 08:04:50 GMT 48.133663 2.008104 27,100 178 423 960
2021-09-24 08:04:48 GMT 48.137993 2.007963 27,025 178 422 1344
2021-09-24 08:04:43 GMT 48.148190 2.007681 26,875 178 421 1344
2021-09-24 08:04:39 GMT 48.157452 2.007399 26,850 178 420 1536
2021-09-24 08:04:36 GMT 48.161179 2.007329 26,575 178 419 1792
2021-09-24 08:04:32 GMT 48.174683 2.006906 26,600 178 419 1856
2021-09-24 08:04:29 GMT 48.174683 2.006906 26,600 178 419 1856
2021-09-24 08:04:27 GMT 48.180496 2.006766 26,450 178 419 1856
2021-09-24 08:04:24 GMT 48.185429 2.006667 26,425 178 419 1856
2021-09-24 08:04:21 GMT 48.190456 2.006523 26,350 178 419 1856
2021-09-24 08:04:18 GMT 48.196182 2.006306 26,275 178 419 1920
2021-09-24 08:04:15 GMT 48.201782 2.006202 26,125 178 419 1920
2021-09-24 08:04:12 GMT 48.207775 2.006017 26,000 178 419 1856
2021-09-24 08:04:09 GMT 48.213593 2.005872 26,000 178 418 1792
2021-09-24 08:04:07 GMT 48.217457 2.005728 25,850 178 419 1792
2021-09-24 08:04:02 GMT 48.229515 2.005366 25,750 178 418 1792
2021-09-24 08:03:59 GMT 48.234543 2.005222 25,650 178 418 1856
2021-09-24 08:03:55 GMT 48.240734 2.005077 25,500 178 418 1856
2021-09-24 08:03:52 GMT 48.246506 2.004860 25,400 178 417 1792
2021-09-24 08:03:49 GMT 48.251862 2.004716 25,350 178 417 1600
2021-09-24 08:03:46 GMT 48.260380 2.004427 25,275 178 416 1536
2021-09-24 08:03:42 GMT 48.266151 2.004282 25,225 178 415 1664
2021-09-24 08:03:38 GMT 48.273739 2.004065 25,100 178 415 1536
2021-09-24 08:03:35 GMT 48.279095 2.003921 25,050 179 415 1344
2021-09-24 08:03:31 GMT 48.287704 2.003667 24,900 179 417 960
2021-09-24 08:03:28 GMT 48.293339 2.003559 24,875 179 417 1024
2021-09-24 08:03:25 GMT 48.298141 2.003385 24,825 179 418 1664
2021-09-24 08:03:22 GMT 48.303589 2.003244 24,775 179 418 1664
2021-09-24 08:03:19 GMT 48.310284 2.003126 24,650 179 417 1600
2021-09-24 08:03:16 GMT 48.323227 2.002751 24,600 179 416 1664
2021-09-24 08:03:13 GMT 48.323227 2.002751 24,525 179 416 1664
2021-09-24 08:03:09 GMT 48.336445 2.002475 24,400 179 415 1536
2021-09-24 08:03:06 GMT 48.336445 2.002475 24,350 179 414 1408
2021-09-24 08:03:01 GMT 48.344547 2.002258 24,150 179 411 1472
2021-09-24 08:02:58 GMT 48.350224 2.002114 24,150 179 410 1664
2021-09-24 08:02:55 GMT 48.358063 2.001906 24,025 179 410 1664
2021-09-24 08:02:51 GMT 48.362793 2.001752 23,750 179 409 2112
2021-09-24 08:02:48 GMT 48.370380 2.001608 23,875 179 409 2176
2021-09-24 08:02:45 GMT 48.375271 2.001463 23,550 179 408 1920
2021-09-24 08:02:42 GMT 48.381134 2.001343 23,200 179 407 1728
2021-09-24 08:02:39 GMT 48.385986 2.001202 23,375 179 409 2048
2021-09-24 08:02:36 GMT 48.393799 2.001030 23,275 179 407 1728
2021-09-24 08:02:32 GMT 48.400772 2.000850 23,350 179 407 1728
2021-09-24 08:02:29 GMT 48.410110 2.000639 23,275 179 407 1728
2021-09-24 08:02:26 GMT 48.410110 2.000639 23,200 179 407 1728
2021-09-24 08:02:23 GMT 48.416885 2.000427 23,075 178 406 1792
2021-09-24 08:02:20 GMT 48.422707 2.000235 22,975 178 405 1664
2021-09-24 08:02:17 GMT 48.428513 2.000075 22,900 179 402 1536
2021-09-24 08:02:13 GMT 48.441605 1.999793 22,825 179 403 1472
2021-09-24 08:02:10 GMT 48.441605 1.999793 22,600 178 400 1920
2021-09-24 08:02:07 GMT 48.453663 1.999439 22,650 178 400 1792
2021-09-24 08:02:04 GMT 48.453663 1.999439 22,475 178 400 1920
2021-09-24 08:02:01 GMT 48.462662 1.999230 22,475 178 398 1920
2021-09-24 08:01:58 GMT 48.462662 1.999230 22,250 178 398 1920
2021-09-24 08:01:55 GMT 48.469818 1.999078 22,125 178 397 1728
2021-09-24 08:01:50 GMT 48.479919 1.998807 22,125 178 397 1728
2021-09-24 08:01:47 GMT 48.484203 1.998717 22,025 178 396 1728
2021-09-24 08:01:44 GMT 48.487976 1.998596 21,900 179 394 1728
2021-09-24 08:01:41 GMT 48.495514 1.998428 21,900 179 394 1728
2021-09-24 08:01:37 GMT 48.501984 1.998283 21,775 179 393 1792
2021-09-24 08:01:34 GMT 48.506779 1.998138 21,400 179 390 2112
2021-09-24 08:01:29 GMT 48.516678 1.997892 21,550 179 391 1920
2021-09-24 08:01:26 GMT 48.521393 1.997822 21,475 179 389 2368
2021-09-24 08:01:22 GMT 48.534153 1.997488 20,800 179 389 2368
2021-09-24 08:01:19 GMT 48.534153 1.997488 21,125 179 389 2368
2021-09-24 08:01:16 GMT 48.538807 1.997343 21,050 179 389 2368
2021-09-24 08:01:13 GMT 48.544209 1.997271 20,525 179 389 2432
2021-09-24 08:01:10 GMT 48.550354 1.997127 20,850 179 389 2368
2021-09-24 08:01:07 GMT 48.555382 1.996982 20,775 179 388 2240
2021-09-24 08:01:04 GMT 48.561310 1.996836 20,625 179 388 2240
2021-09-24 08:01:00 GMT 48.568817 1.996695 20,450 179 388 1984
2021-09-24 08:00:57 GMT 48.573303 1.996621 20,375 179 387 1920
2021-09-24 08:00:54 GMT 48.579163 1.996483 20,300 179 386 1920
2021-09-24 08:00:50 GMT 48.585453 1.996404 20,175 179 385 1920
2021-09-24 08:00:47 GMT 48.597336 1.996131 20,050 179 384 1856
2021-09-24 08:00:44 GMT 48.597336 1.996131 19,900 179 383 1792
2021-09-24 08:00:40 GMT 48.604797 1.995990 19,825 179 381 1792
2021-09-24 08:00:37 GMT 48.610268 1.995898 19,725 179 379 2240
2021-09-24 08:00:34 GMT 48.613758 1.995826 19,675 179 379 2240
2021-09-24 08:00:32 GMT 48.618805 1.995709 19,525 179 379 2496
2021-09-24 08:00:29 GMT 48.623383 1.995638 19,450 179 379 2496
2021-09-24 08:00:26 GMT 48.628094 1.995536 19,300 179 379 2432
2021-09-24 08:00:23 GMT 48.633224 1.995497 19,050 184 377 2368
2021-09-24 08:00:20 GMT 48.643875 1.995681 19,025 185 377 2368
2021-09-24 08:00:17 GMT 48.643875 1.995681 19,025 185 377 2368
2021-09-24 08:00:13 GMT 48.651836 1.996621 18,850 188 376 2304
2021-09-24 08:00:09 GMT 48.660324 1.998596 18,675 192 375 2240
2021-09-24 08:00:06 GMT 48.662823 1.999367 18,575 195 374 2304
2021-09-24 08:00:03 GMT 48.668827 2.001463 18,500 198 373 2560
2021-09-24 08:00:00 GMT 48.673203 2.003270 18,400 198 373 2560
2021-09-24 07:59:57 GMT 48.677994 2.005498 18,225 198 372 2432
2021-09-24 07:59:54 GMT 48.683578 2.008174 17,875 198 371 2240
2021-09-24 07:59:51 GMT 48.688335 2.010353 17,625 198 369 2176
2021-09-24 07:59:47 GMT 48.695023 2.013526 17,800 198 370 2240
2021-09-24 07:59:43 GMT 48.700607 2.016132 17,675 198 370 2176
2021-09-24 07:59:40 GMT 48.705231 2.018315 17,650 198 369 2176
2021-09-24 07:59:37 GMT 48.710724 2.020921 17,475 198 368 2240
2021-09-24 07:59:34 GMT 48.717957 2.024301 17,375 198 367 2304
2021-09-24 07:59:31 GMT 48.720364 2.025460 16,400 198 367 2368
2021-09-24 07:59:27 GMT 48.727158 2.028640 17,050 198 366 2432
2021-09-24 07:59:24 GMT 48.731674 2.030736 16,975 198 365 2432
2021-09-24 07:59:21 GMT 48.737492 2.033483 16,625 198 364 2240
2021-09-24 07:59:18 GMT 48.741531 2.035429 16,750 198 364 2240
2021-09-24 07:59:15 GMT 48.748199 2.038542 16,675 198 363 2048
2021-09-24 07:59:12 GMT 48.752296 2.040421 16,575 198 363 2048
2021-09-24 07:59:09 GMT 48.756317 2.042330 16,225 198 359 2240
2021-09-24 07:59:05 GMT 48.762863 2.045336 16,325 198 359 2176
2021-09-24 07:59:02 GMT 48.768265 2.047938 15,975 198 357 2816
2021-09-24 07:58:58 GMT 48.773991 2.050613 16,050 198 357 2752
2021-09-24 07:58:55 GMT 48.778885 2.052894 15,975 198 357 2816
2021-09-24 07:58:51 GMT 48.785629 2.056106 15,675 198 357 2816
2021-09-24 07:58:48 GMT 48.788467 2.057407 15,675 198 357 2816
2021-09-24 07:58:45 GMT 48.794312 2.060218 15,450 198 356 2816
2021-09-24 07:58:42 GMT 48.799175 2.062466 15,375 198 355 2688
2021-09-24 07:58:39 GMT 48.804249 2.064851 15,250 198 355 2816
2021-09-24 07:58:36 GMT 48.808090 2.066697 15,050 198 352 2496
2021-09-24 07:58:33 GMT 48.813446 2.069162 14,850 198 354 2688
2021-09-24 07:58:30 GMT 48.817375 2.070995 14,850 198 353 2560
2021-09-24 07:58:27 GMT 48.824158 2.074162 14,675 198 353 2560
2021-09-24 07:58:23 GMT 48.829620 2.076705 14,300 198 350 2496
2021-09-24 07:58:20 GMT 48.839401 2.081346 14,150 198 350 2496
2021-09-24 07:58:17 GMT 48.839401 2.081346 14,275 198 350 2496
2021-09-24 07:58:14 GMT 48.843384 2.083177 14,175 198 350 2496
2021-09-24 07:58:11 GMT 48.846497 2.084656 14,100 198 349 2432
2021-09-24 07:58:08 GMT 48.851871 2.087186 13,875 198 347 2560
2021-09-24 07:58:05 GMT 48.856808 2.089426 13,775 197 346 2688
2021-09-24 07:58:02 GMT 48.861416 2.091594 13,700 197 346 2752
2021-09-24 07:57:59 GMT 48.865700 2.093546 13,450 197 344 2688
2021-09-24 07:57:55 GMT 48.870865 2.095931 13,425 197 344 2624
2021-09-24 07:57:52 GMT 48.878357 2.099445 13,250 197 342 2304
2021-09-24 07:57:49 GMT 48.880463 2.100361 13,175 197 342 2368
2021-09-24 07:57:46 GMT 48.885437 2.102653 13,050 197 341 2432
2021-09-24 07:57:41 GMT 48.892372 2.105761 12,875 197 338 2368
2021-09-24 07:57:38 GMT 48.897820 2.108219 12,750 197 336 2496
2021-09-24 07:57:35 GMT 48.902115 2.110150 12,525 197 332 3264
2021-09-24 07:57:31 GMT 48.909256 2.113319 12,425 197 334 2944
2021-09-24 07:57:28 GMT 48.912109 2.114579 12,300 197 333 3072
2021-09-24 07:57:25 GMT 48.915756 2.116206 12,050 197 333 3072
2021-09-24 07:57:22 GMT 48.920349 2.118193 11,650 198 332 3200
2021-09-24 07:57:19 GMT 48.925377 2.120434 11,875 197 332 3264
2021-09-24 07:57:16 GMT 48.931896 2.123397 11,475 200 330 0
2021-09-24 07:57:12 GMT 48.935993 2.125349 11,400 200 331 2880
2021-09-24 07:57:09 GMT 48.940369 2.127589 11,275 200 330 2752
2021-09-24 07:57:06 GMT 48.944824 2.130010 10,925 211 324 1792
2021-09-24 07:57:03 GMT 48.949860 2.133179 11,075 209 325 1920
2021-09-24 07:57:00 GMT 48.952011 2.134728 11,025 211 324 1792
2021-09-24 07:56:56 GMT 48.957779 2.140433 10,850 225 314 1216
2021-09-24 07:56:53 GMT 48.961761 2.145714 10,825 227 312 1216
2021-09-24 07:56:50 GMT 48.964828 2.150926 10,750 231 309 1216
2021-09-24 07:56:46 GMT 48.967529 2.156419 10,650 241 300 1344
2021-09-24 07:56:43 GMT 48.971416 2.167342 10,600 247 295 1344
2021-09-24 07:56:40 GMT 48.971416 2.167342 10,525 251 291 1536
2021-09-24 07:56:37 GMT 48.973343 2.175223 10,450 254 288 1792
2021-09-24 07:56:34 GMT 48.974167 2.179702 10,400 257 286 2112
2021-09-24 07:56:31 GMT 48.974991 2.185293 10,225 265 281 3008
2021-09-24 07:56:28 GMT 48.975609 2.192278 10,125 265 281 3008
2021-09-24 07:56:24 GMT 48.976089 2.199519 9,950 265 281 2880
2021-09-24 07:56:21 GMT 48.976501 2.206210 9,775 265 279 2944
2021-09-24 07:56:18 GMT 48.976822 2.212055 9,525 266 278 3264
2021-09-24 07:56:14 GMT 48.977188 2.217900 9,475 266 278 3264
2021-09-24 07:56:11 GMT 48.977554 2.224872 9,300 266 276 3328
2021-09-24 07:56:07 GMT 48.977966 2.232619 9,075 266 276 3392
2021-09-24 07:56:03 GMT 48.978680 2.246343 8,825 266 275 3264
2021-09-24 07:56:00 GMT 48.978680 2.246343 8,650 266 275 3264
2021-09-24 07:55:57 GMT 48.978912 2.251330 8,475 266 274 3136
2021-09-24 07:55:54 GMT 48.979240 2.257112 8,400 266 274 3136
2021-09-24 07:55:50 GMT 48.979656 2.265135 8,100 265 273 3008
2021-09-24 07:55:47 GMT 48.979984 2.270556 7,800 265 271 3136
2021-09-24 07:55:44 GMT 48.980728 2.282699 7,700 265 269 3328
2021-09-24 07:55:40 GMT 48.980728 2.282699 7,725 265 270 3200
2021-09-24 07:55:37 GMT 48.981216 2.290086 7,250 265 268 3328
2021-09-24 07:55:34 GMT 48.981567 2.295492 7,075 266 267 3328
2021-09-24 07:55:31 GMT 48.981903 2.301354 7,200 265 268 3328
2021-09-24 07:55:27 GMT 48.982315 2.308537 6,950 266 266 3136
2021-09-24 07:55:24 GMT 48.982635 2.314101 6,850 266 266 3200
2021-09-24 07:55:20 GMT 48.983055 2.322235 6,550 266 264 3136
2021-09-24 07:55:17 GMT 48.983368 2.327200 6,350 266 263 3264
2021-09-24 07:55:13 GMT 48.983734 2.334243 6,275 265 263 3200
2021-09-24 07:55:10 GMT 48.984146 2.341144 5,950 265 260 2880
2021-09-24 07:55:07 GMT 48.984421 2.345933 5,625 265 255 2560
2021-09-24 07:55:01 GMT 48.985149 2.357362 5,675 265 255 2560
2021-09-24 07:54:58 GMT 48.985474 2.361849 5,500 264 253 2432
2021-09-24 07:54:55 GMT 48.985840 2.367131 5,450 264 252 2432
2021-09-24 07:54:51 GMT 48.986298 2.373117 5,300 264 249 2048
2021-09-24 07:54:48 GMT 48.986732 2.379624 5,150 264 243 1856
2021-09-24 07:54:45 GMT 48.987030 2.384808 5,100 265 240 1856
2021-09-24 07:54:40 GMT 48.987572 2.392634 4,950 266 233 1920
2021-09-24 07:54:36 GMT 48.987946 2.399034 4,775 266 227 1408
2021-09-24 07:54:33 GMT 48.988178 2.404343 4,700 267 218 896
2021-09-24 07:54:30 GMT 48.988411 2.409042 4,675 267 218 896
2021-09-24 07:54:26 GMT 48.988644 2.414246 4,600 266 151 2880
2021-09-24 07:54:22 GMT 48.988876 2.419883 4,575 266 206 896
2021-09-24 07:54:19 GMT 48.989090 2.424316 4,525 266 200 1024
2021-09-24 07:54:16 GMT 48.989273 2.428471 4,325 266 194 1216
2021-09-24 07:54:11 GMT 48.989685 2.436077 4,200 266 186 1216
2021-09-24 07:54:08 GMT 48.989868 2.440021 4,250 266 183 1344
2021-09-24 07:54:05 GMT 48.990086 2.443808 4,250 266 183 1344
2021-09-24 07:54:00 GMT 48.990364 2.449373 4,100 265 175 1408
2021-09-24 07:53:57 GMT 48.990738 2.455374 4,000 266 151 2880
2021-09-24 07:53:53 GMT 48.991013 2.459952 3,925 265 168 1408
2021-09-24 07:53:50 GMT 48.991158 2.462889 3,875 266 165 1344
2021-09-24 07:53:45 GMT 48.991425 2.467346 3,775 265 156 1408
2021-09-24 07:53:42 GMT 48.991623 2.470912 3,700 265 157 1472
2021-09-24 07:53:38 GMT 48.991974 2.476079 3,600 266 155 1536
2021-09-24 07:53:34 GMT 48.992157 2.479530 3,500 266 152 1856
2021-09-24 07:53:29 GMT 48.992413 2.484789 3,250 266 151 2880
2021-09-24 07:53:25 GMT 48.992706 2.490375 3,100 266 154 2752
2021-09-24 07:53:21 GMT 48.992878 2.494836 2,900 267 156 2432
2021-09-24 07:53:17 GMT 48.993065 2.499173 2,725 268 156 2048
2021-09-24 07:53:14 GMT 48.993156 2.502064 2,675 268 156 2048
2021-09-24 07:53:11 GMT 48.993210 2.504319 2,600 268 156 2048
2021-09-24 07:53:08 GMT 48.993347 2.508545 2,450 268 154 2240
2021-09-24 07:53:05 GMT 48.993439 2.511243 2,375 268 154 2304
2021-09-24 07:53:02 GMT 48.993576 2.514813 2,200 267 154 2304
2021-09-24 07:52:59 GMT 48.993851 2.521926 2,075 267 154 2688
2021-09-24 07:52:55 GMT 48.993851 2.521926 1,975 266 155 2752
2021-09-24 07:52:51 GMT 48.994034 2.526081 1,775 266 157 3008

Making use of Plane Finder data

You are free to use the raw flight data, aircraft information and images provided in this report for your own purposes provided the data is correctly attributed to Plane Finder. We ask that you please credit Plane Finder and link to planefinder.net in close proximity to the content.

Optionally one of the following logos (no smaller then 150x24px) can be used and must link to planefinder.net

Embedding the Plane Finder map

You are welcome to embed the Plane Finder playback map on your website to offer visitors a more interactive experience. We suggest using the following HTML code:

<iframe src="//planefinder.net/data/report/AF9420-F-GRHT-7700-squawk-2021-09-24/map" width="800" height="600" seamless="seamless"></iframe>

Where our data comes from

Plane Finder has a global network of data feeds and antenna radars that receive data broadcast directly from aircraft. The primary technologies used are ADS-B and MLAT. We also show feeds from the FAA and a FLARM glider feed.

Click here to find out more about the Plane Finder network.

How we collect our data